<?xml version="1.0" encoding="UTF-8" ?>
<gpx version="1.1" xmlns:xsi="http://www.w3.org/2001/XMLSchema-instance" 
    xmlns="http://www.topografix.com/GPX/1/1" 
    xsi:schemaLocation="http://www.topografix.com/GPX/1/1 http://www.topografix.com/GPX/1/1/gpx.xsd" 
    creator="Openrunner - https://www.openrunner.com" >	<trk>
						<name>N°1 rapido route  43km 2024-19084980</name>
						<trkseg>
					<trkpt lat="45.866780" lon="4.598230">
						<ele>356</ele>
						<time>2024-10-10T18:32:18Z</time>
					</trkpt>
					<trkpt lat="45.867200" lon="4.600590">
						<ele>370</ele>
						<time>2024-10-10T18:32:48Z</time>
					</trkpt>
					<trkpt lat="45.867430" lon="4.601350">
						<ele>370</ele>
						<time>2024-10-10T18:32:58Z</time>
					</trkpt>
					<trkpt lat="45.867560" lon="4.602120">
						<ele>368</ele>
						<time>2024-10-10T18:33:08Z</time>
					</trkpt>
					<trkpt lat="45.867680" lon="4.602600">
						<ele>366</ele>
						<time>2024-10-10T18:33:15Z</time>
					</trkpt>
					<trkpt lat="45.867760" lon="4.603040">
						<ele>367</ele>
						<time>2024-10-10T18:33:20Z</time>
					</trkpt>
					<trkpt lat="45.867770" lon="4.603250">
						<ele>367</ele>
						<time>2024-10-10T18:33:23Z</time>
					</trkpt>
					<trkpt lat="45.867750" lon="4.603670">
						<ele>367</ele>
						<time>2024-10-10T18:33:28Z</time>
					</trkpt>
					<trkpt lat="45.867630" lon="4.604370">
						<ele>368</ele>
						<time>2024-10-10T18:33:37Z</time>
					</trkpt>
					<trkpt lat="45.867540" lon="4.605200">
						<ele>366</ele>
						<time>2024-10-10T18:33:47Z</time>
					</trkpt>
					<trkpt lat="45.867430" lon="4.607270">
						<ele>361</ele>
						<time>2024-10-10T18:34:13Z</time>
					</trkpt>
					<trkpt lat="45.867340" lon="4.608020">
						<ele>360</ele>
						<time>2024-10-10T18:34:23Z</time>
					</trkpt>
					<trkpt lat="45.867250" lon="4.609050">
						<ele>359</ele>
						<time>2024-10-10T18:34:35Z</time>
					</trkpt>
					<trkpt lat="45.867190" lon="4.609640">
						<ele>360</ele>
						<time>2024-10-10T18:34:43Z</time>
					</trkpt>
					<trkpt lat="45.867040" lon="4.610570">
						<ele>358</ele>
						<time>2024-10-10T18:34:55Z</time>
					</trkpt>
					<trkpt lat="45.867020" lon="4.611300">
						<ele>353</ele>
						<time>2024-10-10T18:35:04Z</time>
					</trkpt>
					<trkpt lat="45.866830" lon="4.611970">
						<ele>348</ele>
						<time>2024-10-10T18:35:13Z</time>
					</trkpt>
					<trkpt lat="45.866610" lon="4.614220">
						<ele>338</ele>
						<time>2024-10-10T18:35:41Z</time>
					</trkpt>
					<trkpt lat="45.866590" lon="4.614880">
						<ele>333</ele>
						<time>2024-10-10T18:35:49Z</time>
					</trkpt>
					<trkpt lat="45.866480" lon="4.615820">
						<ele>330</ele>
						<time>2024-10-10T18:36:01Z</time>
					</trkpt>
					<trkpt lat="45.866460" lon="4.616200">
						<ele>328</ele>
						<time>2024-10-10T18:36:05Z</time>
					</trkpt>
					<trkpt lat="45.866460" lon="4.616320">
						<ele>327</ele>
						<time>2024-10-10T18:36:07Z</time>
					</trkpt>
					<trkpt lat="45.866540" lon="4.616880">
						<ele>324</ele>
						<time>2024-10-10T18:36:14Z</time>
					</trkpt>
					<trkpt lat="45.866610" lon="4.617750">
						<ele>318</ele>
						<time>2024-10-10T18:36:25Z</time>
					</trkpt>
					<trkpt lat="45.866920" lon="4.619020">
						<ele>316</ele>
						<time>2024-10-10T18:36:42Z</time>
					</trkpt>
					<trkpt lat="45.866950" lon="4.619300">
						<ele>316</ele>
						<time>2024-10-10T18:36:45Z</time>
					</trkpt>
					<trkpt lat="45.866920" lon="4.619830">
						<ele>316</ele>
						<time>2024-10-10T18:36:52Z</time>
					</trkpt>
					<trkpt lat="45.866980" lon="4.620640">
						<ele>317</ele>
						<time>2024-10-10T18:37:02Z</time>
					</trkpt>
					<trkpt lat="45.867110" lon="4.621400">
						<ele>316</ele>
						<time>2024-10-10T18:37:11Z</time>
					</trkpt>
					<trkpt lat="45.867220" lon="4.622370">
						<ele>312</ele>
						<time>2024-10-10T18:37:24Z</time>
					</trkpt>
					<trkpt lat="45.867250" lon="4.623060">
						<ele>311</ele>
						<time>2024-10-10T18:37:32Z</time>
					</trkpt>
					<trkpt lat="45.867270" lon="4.624410">
						<ele>308</ele>
						<time>2024-10-10T18:37:49Z</time>
					</trkpt>
					<trkpt lat="45.867340" lon="4.625500">
						<ele>308</ele>
						<time>2024-10-10T18:38:02Z</time>
					</trkpt>
					<trkpt lat="45.867240" lon="4.627400">
						<ele>306</ele>
						<time>2024-10-10T18:38:26Z</time>
					</trkpt>
					<trkpt lat="45.867150" lon="4.628660">
						<ele>302</ele>
						<time>2024-10-10T18:38:42Z</time>
					</trkpt>
					<trkpt lat="45.866970" lon="4.630190">
						<ele>295</ele>
						<time>2024-10-10T18:39:01Z</time>
					</trkpt>
					<trkpt lat="45.866880" lon="4.630760">
						<ele>293</ele>
						<time>2024-10-10T18:39:08Z</time>
					</trkpt>
					<trkpt lat="45.866920" lon="4.630840">
						<ele>293</ele>
						<time>2024-10-10T18:39:09Z</time>
					</trkpt>
					<trkpt lat="45.866880" lon="4.630760">
						<ele>293</ele>
						<time>2024-10-10T18:39:11Z</time>
					</trkpt>
					<trkpt lat="45.866700" lon="4.631420">
						<ele>291</ele>
						<time>2024-10-10T18:39:19Z</time>
					</trkpt>
					<trkpt lat="45.866550" lon="4.632160">
						<ele>290</ele>
						<time>2024-10-10T18:39:29Z</time>
					</trkpt>
					<trkpt lat="45.866400" lon="4.633090">
						<ele>288</ele>
						<time>2024-10-10T18:39:41Z</time>
					</trkpt>
					<trkpt lat="45.866110" lon="4.634310">
						<ele>287</ele>
						<time>2024-10-10T18:39:57Z</time>
					</trkpt>
					<trkpt lat="45.865940" lon="4.634830">
						<ele>286</ele>
						<time>2024-10-10T18:40:04Z</time>
					</trkpt>
					<trkpt lat="45.866140" lon="4.635100">
						<ele>285</ele>
						<time>2024-10-10T18:40:09Z</time>
					</trkpt>
					<trkpt lat="45.867230" lon="4.637010">
						<ele>272</ele>
						<time>2024-10-10T18:40:39Z</time>
					</trkpt>
					<trkpt lat="45.867290" lon="4.637250">
						<ele>270</ele>
						<time>2024-10-10T18:40:43Z</time>
					</trkpt>
					<trkpt lat="45.867330" lon="4.637740">
						<ele>268</ele>
						<time>2024-10-10T18:40:49Z</time>
					</trkpt>
					<trkpt lat="45.867430" lon="4.638230">
						<ele>267</ele>
						<time>2024-10-10T18:40:55Z</time>
					</trkpt>
					<trkpt lat="45.867580" lon="4.638740">
						<ele>267</ele>
						<time>2024-10-10T18:41:02Z</time>
					</trkpt>
					<trkpt lat="45.867830" lon="4.639300">
						<ele>265</ele>
						<time>2024-10-10T18:41:10Z</time>
					</trkpt>
					<trkpt lat="45.868090" lon="4.639750">
						<ele>263</ele>
						<time>2024-10-10T18:41:17Z</time>
					</trkpt>
					<trkpt lat="45.868340" lon="4.640130">
						<ele>262</ele>
						<time>2024-10-10T18:41:24Z</time>
					</trkpt>
					<trkpt lat="45.869230" lon="4.640740">
						<ele>253</ele>
						<time>2024-10-10T18:41:41Z</time>
					</trkpt>
					<trkpt lat="45.869630" lon="4.641630">
						<ele>244</ele>
						<time>2024-10-10T18:41:55Z</time>
					</trkpt>
					<trkpt lat="45.869850" lon="4.642290">
						<ele>237</ele>
						<time>2024-10-10T18:42:04Z</time>
					</trkpt>
					<trkpt lat="45.870580" lon="4.642430">
						<ele>228</ele>
						<time>2024-10-10T18:42:17Z</time>
					</trkpt>
					<trkpt lat="45.871760" lon="4.643090">
						<ele>215</ele>
						<time>2024-10-10T18:42:39Z</time>
					</trkpt>
					<trkpt lat="45.872140" lon="4.643070">
						<ele>212</ele>
						<time>2024-10-10T18:42:46Z</time>
					</trkpt>
					<trkpt lat="45.873500" lon="4.643400">
						<ele>211</ele>
						<time>2024-10-10T18:43:11Z</time>
					</trkpt>
					<trkpt lat="45.873720" lon="4.643420">
						<ele>211</ele>
						<time>2024-10-10T18:43:14Z</time>
					</trkpt>
					<trkpt lat="45.874210" lon="4.643390">
						<ele>212</ele>
						<time>2024-10-10T18:43:23Z</time>
					</trkpt>
					<trkpt lat="45.874450" lon="4.643400">
						<ele>212</ele>
						<time>2024-10-10T18:43:27Z</time>
					</trkpt>
					<trkpt lat="45.874900" lon="4.643510">
						<ele>212</ele>
						<time>2024-10-10T18:43:36Z</time>
					</trkpt>
					<trkpt lat="45.875480" lon="4.643740">
						<ele>212</ele>
						<time>2024-10-10T18:43:46Z</time>
					</trkpt>
					<trkpt lat="45.875740" lon="4.643870">
						<ele>212</ele>
						<time>2024-10-10T18:43:51Z</time>
					</trkpt>
					<trkpt lat="45.875980" lon="4.644170">
						<ele>213</ele>
						<time>2024-10-10T18:43:57Z</time>
					</trkpt>
					<trkpt lat="45.876630" lon="4.644140">
						<ele>213</ele>
						<time>2024-10-10T18:44:08Z</time>
					</trkpt>
					<trkpt lat="45.877250" lon="4.644350">
						<ele>215</ele>
						<time>2024-10-10T18:44:20Z</time>
					</trkpt>
					<trkpt lat="45.876830" lon="4.644920">
						<ele>214</ele>
						<time>2024-10-10T18:44:30Z</time>
					</trkpt>
					<trkpt lat="45.877190" lon="4.645470">
						<ele>216</ele>
						<time>2024-10-10T18:44:39Z</time>
					</trkpt>
					<trkpt lat="45.877220" lon="4.646090">
						<ele>217</ele>
						<time>2024-10-10T18:44:47Z</time>
					</trkpt>
					<trkpt lat="45.877310" lon="4.646420">
						<ele>218</ele>
						<time>2024-10-10T18:44:51Z</time>
					</trkpt>
					<trkpt lat="45.877260" lon="4.646730">
						<ele>217</ele>
						<time>2024-10-10T18:44:55Z</time>
					</trkpt>
					<trkpt lat="45.877240" lon="4.647140">
						<ele>215</ele>
						<time>2024-10-10T18:45:01Z</time>
					</trkpt>
					<trkpt lat="45.877390" lon="4.647810">
						<ele>213</ele>
						<time>2024-10-10T18:45:09Z</time>
					</trkpt>
					<trkpt lat="45.877520" lon="4.648110">
						<ele>214</ele>
						<time>2024-10-10T18:45:14Z</time>
					</trkpt>
					<trkpt lat="45.878270" lon="4.649470">
						<ele>225</ele>
						<time>2024-10-10T18:45:35Z</time>
					</trkpt>
					<trkpt lat="45.878610" lon="4.649750">
						<ele>230</ele>
						<time>2024-10-10T18:45:42Z</time>
					</trkpt>
					<trkpt lat="45.878920" lon="4.649850">
						<ele>233</ele>
						<time>2024-10-10T18:45:48Z</time>
					</trkpt>
					<trkpt lat="45.879230" lon="4.649840">
						<ele>236</ele>
						<time>2024-10-10T18:45:53Z</time>
					</trkpt>
					<trkpt lat="45.879490" lon="4.649700">
						<ele>237</ele>
						<time>2024-10-10T18:45:58Z</time>
					</trkpt>
					<trkpt lat="45.880050" lon="4.649250">
						<ele>238</ele>
						<time>2024-10-10T18:46:10Z</time>
					</trkpt>
					<trkpt lat="45.880620" lon="4.648750">
						<ele>241</ele>
						<time>2024-10-10T18:46:21Z</time>
					</trkpt>
					<trkpt lat="45.880830" lon="4.648650">
						<ele>243</ele>
						<time>2024-10-10T18:46:25Z</time>
					</trkpt>
					<trkpt lat="45.882160" lon="4.648290">
						<ele>251</ele>
						<time>2024-10-10T18:46:49Z</time>
					</trkpt>
					<trkpt lat="45.882760" lon="4.648060">
						<ele>257</ele>
						<time>2024-10-10T18:47:01Z</time>
					</trkpt>
					<trkpt lat="45.884960" lon="4.647680">
						<ele>270</ele>
						<time>2024-10-10T18:47:40Z</time>
					</trkpt>
					<trkpt lat="45.885240" lon="4.647700">
						<ele>270</ele>
						<time>2024-10-10T18:47:45Z</time>
					</trkpt>
					<trkpt lat="45.885360" lon="4.647800">
						<ele>271</ele>
						<time>2024-10-10T18:47:47Z</time>
					</trkpt>
					<trkpt lat="45.885450" lon="4.647940">
						<ele>272</ele>
						<time>2024-10-10T18:47:50Z</time>
					</trkpt>
					<trkpt lat="45.885480" lon="4.648060">
						<ele>273</ele>
						<time>2024-10-10T18:47:51Z</time>
					</trkpt>
					<trkpt lat="45.885510" lon="4.648300">
						<ele>275</ele>
						<time>2024-10-10T18:47:54Z</time>
					</trkpt>
					<trkpt lat="45.885480" lon="4.648600">
						<ele>276</ele>
						<time>2024-10-10T18:47:58Z</time>
					</trkpt>
					<trkpt lat="45.885160" lon="4.650410">
						<ele>287</ele>
						<time>2024-10-10T18:48:21Z</time>
					</trkpt>
					<trkpt lat="45.885010" lon="4.650790">
						<ele>290</ele>
						<time>2024-10-10T18:48:27Z</time>
					</trkpt>
					<trkpt lat="45.884890" lon="4.651030">
						<ele>291</ele>
						<time>2024-10-10T18:48:30Z</time>
					</trkpt>
					<trkpt lat="45.884750" lon="4.651230">
						<ele>293</ele>
						<time>2024-10-10T18:48:34Z</time>
					</trkpt>
					<trkpt lat="45.883330" lon="4.652770">
						<ele>302</ele>
						<time>2024-10-10T18:49:06Z</time>
					</trkpt>
					<trkpt lat="45.883100" lon="4.653080">
						<ele>305</ele>
						<time>2024-10-10T18:49:11Z</time>
					</trkpt>
					<trkpt lat="45.882940" lon="4.653450">
						<ele>307</ele>
						<time>2024-10-10T18:49:17Z</time>
					</trkpt>
					<trkpt lat="45.881930" lon="4.656480">
						<ele>322</ele>
						<time>2024-10-10T18:49:58Z</time>
					</trkpt>
					<trkpt lat="45.881530" lon="4.657230">
						<ele>328</ele>
						<time>2024-10-10T18:50:10Z</time>
					</trkpt>
					<trkpt lat="45.881330" lon="4.657510">
						<ele>333</ele>
						<time>2024-10-10T18:50:15Z</time>
					</trkpt>
					<trkpt lat="45.881090" lon="4.657790">
						<ele>336</ele>
						<time>2024-10-10T18:50:20Z</time>
					</trkpt>
					<trkpt lat="45.880870" lon="4.657990">
						<ele>338</ele>
						<time>2024-10-10T18:50:25Z</time>
					</trkpt>
					<trkpt lat="45.880560" lon="4.658220">
						<ele>339</ele>
						<time>2024-10-10T18:50:31Z</time>
					</trkpt>
					<trkpt lat="45.880190" lon="4.658460">
						<ele>341</ele>
						<time>2024-10-10T18:50:38Z</time>
					</trkpt>
					<trkpt lat="45.879960" lon="4.658640">
						<ele>342</ele>
						<time>2024-10-10T18:50:43Z</time>
					</trkpt>
					<trkpt lat="45.879550" lon="4.659110">
						<ele>341</ele>
						<time>2024-10-10T18:50:52Z</time>
					</trkpt>
					<trkpt lat="45.879390" lon="4.659370">
						<ele>342</ele>
						<time>2024-10-10T18:50:57Z</time>
					</trkpt>
					<trkpt lat="45.879310" lon="4.659560">
						<ele>343</ele>
						<time>2024-10-10T18:50:59Z</time>
					</trkpt>
					<trkpt lat="45.879240" lon="4.660110">
						<ele>343</ele>
						<time>2024-10-10T18:51:06Z</time>
					</trkpt>
					<trkpt lat="45.879230" lon="4.661340">
						<ele>349</ele>
						<time>2024-10-10T18:51:22Z</time>
					</trkpt>
					<trkpt lat="45.879840" lon="4.661380">
						<ele>348</ele>
						<time>2024-10-10T18:51:32Z</time>
					</trkpt>
					<trkpt lat="45.880330" lon="4.661370">
						<ele>348</ele>
						<time>2024-10-10T18:51:41Z</time>
					</trkpt>
					<trkpt lat="45.881780" lon="4.661240">
						<ele>349</ele>
						<time>2024-10-10T18:52:07Z</time>
					</trkpt>
					<trkpt lat="45.882700" lon="4.661330">
						<ele>351</ele>
						<time>2024-10-10T18:52:23Z</time>
					</trkpt>
					<trkpt lat="45.884730" lon="4.661480">
						<ele>364</ele>
						<time>2024-10-10T18:53:00Z</time>
					</trkpt>
					<trkpt lat="45.884850" lon="4.661550">
						<ele>365</ele>
						<time>2024-10-10T18:53:02Z</time>
					</trkpt>
					<trkpt lat="45.885400" lon="4.662000">
						<ele>369</ele>
						<time>2024-10-10T18:53:13Z</time>
					</trkpt>
					<trkpt lat="45.885650" lon="4.662280">
						<ele>370</ele>
						<time>2024-10-10T18:53:19Z</time>
					</trkpt>
					<trkpt lat="45.885830" lon="4.662490">
						<ele>371</ele>
						<time>2024-10-10T18:53:23Z</time>
					</trkpt>
					<trkpt lat="45.886490" lon="4.663630">
						<ele>378</ele>
						<time>2024-10-10T18:53:41Z</time>
					</trkpt>
					<trkpt lat="45.886730" lon="4.663920">
						<ele>379</ele>
						<time>2024-10-10T18:53:47Z</time>
					</trkpt>
					<trkpt lat="45.887230" lon="4.664390">
						<ele>382</ele>
						<time>2024-10-10T18:53:57Z</time>
					</trkpt>
					<trkpt lat="45.887880" lon="4.665230">
						<ele>389</ele>
						<time>2024-10-10T18:54:13Z</time>
					</trkpt>
					<trkpt lat="45.887970" lon="4.665310">
						<ele>390</ele>
						<time>2024-10-10T18:54:15Z</time>
					</trkpt>
					<trkpt lat="45.888460" lon="4.665610">
						<ele>393</ele>
						<time>2024-10-10T18:54:24Z</time>
					</trkpt>
					<trkpt lat="45.888630" lon="4.665750">
						<ele>395</ele>
						<time>2024-10-10T18:54:28Z</time>
					</trkpt>
					<trkpt lat="45.888740" lon="4.665890">
						<ele>397</ele>
						<time>2024-10-10T18:54:31Z</time>
					</trkpt>
					<trkpt lat="45.888900" lon="4.666190">
						<ele>400</ele>
						<time>2024-10-10T18:54:35Z</time>
					</trkpt>
					<trkpt lat="45.889180" lon="4.666570">
						<ele>405</ele>
						<time>2024-10-10T18:54:42Z</time>
					</trkpt>
					<trkpt lat="45.889390" lon="4.666750">
						<ele>406</ele>
						<time>2024-10-10T18:54:46Z</time>
					</trkpt>
					<trkpt lat="45.889750" lon="4.666990">
						<ele>408</ele>
						<time>2024-10-10T18:54:53Z</time>
					</trkpt>
					<trkpt lat="45.890240" lon="4.667190">
						<ele>408</ele>
						<time>2024-10-10T18:55:03Z</time>
					</trkpt>
					<trkpt lat="45.890510" lon="4.667370">
						<ele>409</ele>
						<time>2024-10-10T18:55:08Z</time>
					</trkpt>
					<trkpt lat="45.890700" lon="4.667580">
						<ele>410</ele>
						<time>2024-10-10T18:55:12Z</time>
					</trkpt>
					<trkpt lat="45.891020" lon="4.667900">
						<ele>411</ele>
						<time>2024-10-10T18:55:19Z</time>
					</trkpt>
					<trkpt lat="45.891320" lon="4.668050">
						<ele>411</ele>
						<time>2024-10-10T18:55:25Z</time>
					</trkpt>
					<trkpt lat="45.891540" lon="4.668240">
						<ele>413</ele>
						<time>2024-10-10T18:55:29Z</time>
					</trkpt>
					<trkpt lat="45.891820" lon="4.668110">
						<ele>411</ele>
						<time>2024-10-10T18:55:34Z</time>
					</trkpt>
					<trkpt lat="45.891980" lon="4.667980">
						<ele>409</ele>
						<time>2024-10-10T18:55:38Z</time>
					</trkpt>
					<trkpt lat="45.892750" lon="4.666180">
						<ele>394</ele>
						<time>2024-10-10T18:56:04Z</time>
					</trkpt>
					<trkpt lat="45.893200" lon="4.665330">
						<ele>392</ele>
						<time>2024-10-10T18:56:17Z</time>
					</trkpt>
					<trkpt lat="45.893750" lon="4.664460">
						<ele>383</ele>
						<time>2024-10-10T18:56:32Z</time>
					</trkpt>
					<trkpt lat="45.893830" lon="4.664170">
						<ele>380</ele>
						<time>2024-10-10T18:56:36Z</time>
					</trkpt>
					<trkpt lat="45.893800" lon="4.663700">
						<ele>376</ele>
						<time>2024-10-10T18:56:41Z</time>
					</trkpt>
					<trkpt lat="45.893830" lon="4.663480">
						<ele>374</ele>
						<time>2024-10-10T18:56:44Z</time>
					</trkpt>
					<trkpt lat="45.893870" lon="4.663280">
						<ele>373</ele>
						<time>2024-10-10T18:56:47Z</time>
					</trkpt>
					<trkpt lat="45.894090" lon="4.662600">
						<ele>367</ele>
						<time>2024-10-10T18:56:56Z</time>
					</trkpt>
					<trkpt lat="45.894340" lon="4.662280">
						<ele>362</ele>
						<time>2024-10-10T18:57:02Z</time>
					</trkpt>
					<trkpt lat="45.894460" lon="4.662180">
						<ele>361</ele>
						<time>2024-10-10T18:57:04Z</time>
					</trkpt>
					<trkpt lat="45.894860" lon="4.661920">
						<ele>357</ele>
						<time>2024-10-10T18:57:12Z</time>
					</trkpt>
					<trkpt lat="45.895020" lon="4.661720">
						<ele>355</ele>
						<time>2024-10-10T18:57:16Z</time>
					</trkpt>
					<trkpt lat="45.895600" lon="4.660470">
						<ele>343</ele>
						<time>2024-10-10T18:57:35Z</time>
					</trkpt>
					<trkpt lat="45.895680" lon="4.660370">
						<ele>342</ele>
						<time>2024-10-10T18:57:37Z</time>
					</trkpt>
					<trkpt lat="45.895890" lon="4.660220">
						<ele>341</ele>
						<time>2024-10-10T18:57:41Z</time>
					</trkpt>
					<trkpt lat="45.896020" lon="4.660190">
						<ele>341</ele>
						<time>2024-10-10T18:57:43Z</time>
					</trkpt>
					<trkpt lat="45.896640" lon="4.660140">
						<ele>341</ele>
						<time>2024-10-10T18:57:54Z</time>
					</trkpt>
					<trkpt lat="45.897010" lon="4.660050">
						<ele>340</ele>
						<time>2024-10-10T18:58:01Z</time>
					</trkpt>
					<trkpt lat="45.897200" lon="4.659980">
						<ele>340</ele>
						<time>2024-10-10T18:58:04Z</time>
					</trkpt>
					<trkpt lat="45.897850" lon="4.659670">
						<ele>337</ele>
						<time>2024-10-10T18:58:16Z</time>
					</trkpt>
					<trkpt lat="45.898220" lon="4.659440">
						<ele>336</ele>
						<time>2024-10-10T18:58:24Z</time>
					</trkpt>
					<trkpt lat="45.898940" lon="4.658810">
						<ele>335</ele>
						<time>2024-10-10T18:58:39Z</time>
					</trkpt>
					<trkpt lat="45.899090" lon="4.658660">
						<ele>335</ele>
						<time>2024-10-10T18:58:42Z</time>
					</trkpt>
					<trkpt lat="45.899250" lon="4.658360">
						<ele>333</ele>
						<time>2024-10-10T18:58:47Z</time>
					</trkpt>
					<trkpt lat="45.899480" lon="4.658350">
						<ele>333</ele>
						<time>2024-10-10T18:58:51Z</time>
					</trkpt>
					<trkpt lat="45.900270" lon="4.658380">
						<ele>333</ele>
						<time>2024-10-10T18:59:05Z</time>
					</trkpt>
					<trkpt lat="45.900920" lon="4.658580">
						<ele>332</ele>
						<time>2024-10-10T18:59:17Z</time>
					</trkpt>
					<trkpt lat="45.901560" lon="4.658860">
						<ele>334</ele>
						<time>2024-10-10T18:59:28Z</time>
					</trkpt>
					<trkpt lat="45.901690" lon="4.658830">
						<ele>334</ele>
						<time>2024-10-10T18:59:31Z</time>
					</trkpt>
					<trkpt lat="45.901870" lon="4.658740">
						<ele>333</ele>
						<time>2024-10-10T18:59:34Z</time>
					</trkpt>
					<trkpt lat="45.902400" lon="4.658360">
						<ele>329</ele>
						<time>2024-10-10T18:59:45Z</time>
					</trkpt>
					<trkpt lat="45.902490" lon="4.658330">
						<ele>329</ele>
						<time>2024-10-10T18:59:46Z</time>
					</trkpt>
					<trkpt lat="45.902710" lon="4.658310">
						<ele>328</ele>
						<time>2024-10-10T18:59:50Z</time>
					</trkpt>
					<trkpt lat="45.903170" lon="4.658390">
						<ele>326</ele>
						<time>2024-10-10T18:59:59Z</time>
					</trkpt>
					<trkpt lat="45.903990" lon="4.658920">
						<ele>327</ele>
						<time>2024-10-10T19:00:15Z</time>
					</trkpt>
					<trkpt lat="45.904300" lon="4.659020">
						<ele>327</ele>
						<time>2024-10-10T19:00:20Z</time>
					</trkpt>
					<trkpt lat="45.904480" lon="4.659110">
						<ele>327</ele>
						<time>2024-10-10T19:00:24Z</time>
					</trkpt>
					<trkpt lat="45.904600" lon="4.659210">
						<ele>327</ele>
						<time>2024-10-10T19:00:26Z</time>
					</trkpt>
					<trkpt lat="45.904960" lon="4.659620">
						<ele>329</ele>
						<time>2024-10-10T19:00:34Z</time>
					</trkpt>
					<trkpt lat="45.905200" lon="4.659820">
						<ele>329</ele>
						<time>2024-10-10T19:00:39Z</time>
					</trkpt>
					<trkpt lat="45.905360" lon="4.659980">
						<ele>330</ele>
						<time>2024-10-10T19:00:43Z</time>
					</trkpt>
					<trkpt lat="45.905720" lon="4.660800">
						<ele>334</ele>
						<time>2024-10-10T19:00:55Z</time>
					</trkpt>
					<trkpt lat="45.906560" lon="4.660310">
						<ele>326</ele>
						<time>2024-10-10T19:01:11Z</time>
					</trkpt>
					<trkpt lat="45.906970" lon="4.659890">
						<ele>323</ele>
						<time>2024-10-10T19:01:20Z</time>
					</trkpt>
					<trkpt lat="45.907330" lon="4.659750">
						<ele>322</ele>
						<time>2024-10-10T19:01:26Z</time>
					</trkpt>
					<trkpt lat="45.907940" lon="4.659670">
						<ele>321</ele>
						<time>2024-10-10T19:01:37Z</time>
					</trkpt>
					<trkpt lat="45.908010" lon="4.659630">
						<ele>321</ele>
						<time>2024-10-10T19:01:39Z</time>
					</trkpt>
					<trkpt lat="45.908240" lon="4.659270">
						<ele>318</ele>
						<time>2024-10-10T19:01:45Z</time>
					</trkpt>
					<trkpt lat="45.908310" lon="4.659230">
						<ele>318</ele>
						<time>2024-10-10T19:01:46Z</time>
					</trkpt>
					<trkpt lat="45.909000" lon="4.659040">
						<ele>318</ele>
						<time>2024-10-10T19:01:58Z</time>
					</trkpt>
					<trkpt lat="45.909170" lon="4.659020">
						<ele>318</ele>
						<time>2024-10-10T19:02:02Z</time>
					</trkpt>
					<trkpt lat="45.909700" lon="4.659140">
						<ele>319</ele>
						<time>2024-10-10T19:02:11Z</time>
					</trkpt>
					<trkpt lat="45.910050" lon="4.659140">
						<ele>319</ele>
						<time>2024-10-10T19:02:17Z</time>
					</trkpt>
					<trkpt lat="45.910030" lon="4.659130">
						<ele>319</ele>
						<time>2024-10-10T19:02:18Z</time>
					</trkpt>
					<trkpt lat="45.910470" lon="4.658360">
						<ele>316</ele>
						<time>2024-10-10T19:02:30Z</time>
					</trkpt>
					<trkpt lat="45.910790" lon="4.657960">
						<ele>316</ele>
						<time>2024-10-10T19:02:38Z</time>
					</trkpt>
					<trkpt lat="45.910860" lon="4.657820">
						<ele>316</ele>
						<time>2024-10-10T19:02:40Z</time>
					</trkpt>
					<trkpt lat="45.911000" lon="4.657280">
						<ele>314</ele>
						<time>2024-10-10T19:02:47Z</time>
					</trkpt>
					<trkpt lat="45.911180" lon="4.656320">
						<ele>311</ele>
						<time>2024-10-10T19:02:59Z</time>
					</trkpt>
					<trkpt lat="45.911310" lon="4.655990">
						<ele>309</ele>
						<time>2024-10-10T19:03:04Z</time>
					</trkpt>
					<trkpt lat="45.911490" lon="4.655770">
						<ele>307</ele>
						<time>2024-10-10T19:03:08Z</time>
					</trkpt>
					<trkpt lat="45.911680" lon="4.655340">
						<ele>302</ele>
						<time>2024-10-10T19:03:14Z</time>
					</trkpt>
					<trkpt lat="45.911810" lon="4.655220">
						<ele>301</ele>
						<time>2024-10-10T19:03:17Z</time>
					</trkpt>
					<trkpt lat="45.912480" lon="4.655160">
						<ele>302</ele>
						<time>2024-10-10T19:03:29Z</time>
					</trkpt>
					<trkpt lat="45.912610" lon="4.655200">
						<ele>302</ele>
						<time>2024-10-10T19:03:31Z</time>
					</trkpt>
					<trkpt lat="45.912690" lon="4.655090">
						<ele>300</ele>
						<time>2024-10-10T19:03:33Z</time>
					</trkpt>
					<trkpt lat="45.912760" lon="4.654770">
						<ele>297</ele>
						<time>2024-10-10T19:03:37Z</time>
					</trkpt>
					<trkpt lat="45.912770" lon="4.654470">
						<ele>293</ele>
						<time>2024-10-10T19:03:41Z</time>
					</trkpt>
					<trkpt lat="45.912730" lon="4.654260">
						<ele>291</ele>
						<time>2024-10-10T19:03:44Z</time>
					</trkpt>
					<trkpt lat="45.912640" lon="4.654050">
						<ele>289</ele>
						<time>2024-10-10T19:03:47Z</time>
					</trkpt>
					<trkpt lat="45.912480" lon="4.653900">
						<ele>288</ele>
						<time>2024-10-10T19:03:50Z</time>
					</trkpt>
					<trkpt lat="45.912150" lon="4.653720">
						<ele>286</ele>
						<time>2024-10-10T19:03:57Z</time>
					</trkpt>
					<trkpt lat="45.911710" lon="4.653670">
						<ele>285</ele>
						<time>2024-10-10T19:04:04Z</time>
					</trkpt>
					<trkpt lat="45.911700" lon="4.653390">
						<ele>283</ele>
						<time>2024-10-10T19:04:08Z</time>
					</trkpt>
					<trkpt lat="45.911710" lon="4.653390">
						<ele>283</ele>
						<time>2024-10-10T19:04:08Z</time>
					</trkpt>
					<trkpt lat="45.911800" lon="4.652910">
						<ele>277</ele>
						<time>2024-10-10T19:04:14Z</time>
					</trkpt>
					<trkpt lat="45.911840" lon="4.652750">
						<ele>275</ele>
						<time>2024-10-10T19:04:16Z</time>
					</trkpt>
					<trkpt lat="45.911950" lon="4.652790">
						<ele>276</ele>
						<time>2024-10-10T19:04:18Z</time>
					</trkpt>
					<trkpt lat="45.912540" lon="4.652970">
						<ele>278</ele>
						<time>2024-10-10T19:04:29Z</time>
					</trkpt>
					<trkpt lat="45.912580" lon="4.652970">
						<ele>278</ele>
						<time>2024-10-10T19:04:30Z</time>
					</trkpt>
					<trkpt lat="45.912930" lon="4.652830">
						<ele>276</ele>
						<time>2024-10-10T19:04:36Z</time>
					</trkpt>
					<trkpt lat="45.913330" lon="4.652640">
						<ele>274</ele>
						<time>2024-10-10T19:04:44Z</time>
					</trkpt>
					<trkpt lat="45.913590" lon="4.652550">
						<ele>273</ele>
						<time>2024-10-10T19:04:49Z</time>
					</trkpt>
					<trkpt lat="45.913650" lon="4.652550">
						<ele>273</ele>
						<time>2024-10-10T19:04:50Z</time>
					</trkpt>
					<trkpt lat="45.913590" lon="4.652550">
						<ele>273</ele>
						<time>2024-10-10T19:04:51Z</time>
					</trkpt>
					<trkpt lat="45.913600" lon="4.652450">
						<ele>272</ele>
						<time>2024-10-10T19:04:52Z</time>
					</trkpt>
					<trkpt lat="45.913650" lon="4.652180">
						<ele>272</ele>
						<time>2024-10-10T19:04:55Z</time>
					</trkpt>
					<trkpt lat="45.913700" lon="4.652040">
						<ele>272</ele>
						<time>2024-10-10T19:04:57Z</time>
					</trkpt>
					<trkpt lat="45.914030" lon="4.651480">
						<ele>274</ele>
						<time>2024-10-10T19:05:06Z</time>
					</trkpt>
					<trkpt lat="45.914220" lon="4.651170">
						<ele>277</ele>
						<time>2024-10-10T19:05:12Z</time>
					</trkpt>
					<trkpt lat="45.914370" lon="4.650970">
						<ele>279</ele>
						<time>2024-10-10T19:05:15Z</time>
					</trkpt>
					<trkpt lat="45.914740" lon="4.650690">
						<ele>282</ele>
						<time>2024-10-10T19:05:23Z</time>
					</trkpt>
					<trkpt lat="45.915090" lon="4.650380">
						<ele>284</ele>
						<time>2024-10-10T19:05:30Z</time>
					</trkpt>
					<trkpt lat="45.915340" lon="4.650010">
						<ele>287</ele>
						<time>2024-10-10T19:05:36Z</time>
					</trkpt>
					<trkpt lat="45.915830" lon="4.648970">
						<ele>293</ele>
						<time>2024-10-10T19:05:52Z</time>
					</trkpt>
					<trkpt lat="45.916060" lon="4.648460">
						<ele>296</ele>
						<time>2024-10-10T19:05:59Z</time>
					</trkpt>
					<trkpt lat="45.916090" lon="4.648390">
						<ele>296</ele>
						<time>2024-10-10T19:06:00Z</time>
					</trkpt>
					<trkpt lat="45.916470" lon="4.647490">
						<ele>299</ele>
						<time>2024-10-10T19:06:13Z</time>
					</trkpt>
					<trkpt lat="45.916790" lon="4.646840">
						<ele>302</ele>
						<time>2024-10-10T19:06:23Z</time>
					</trkpt>
					<trkpt lat="45.917020" lon="4.646390">
						<ele>303</ele>
						<time>2024-10-10T19:06:30Z</time>
					</trkpt>
					<trkpt lat="45.917270" lon="4.645770">
						<ele>305</ele>
						<time>2024-10-10T19:06:39Z</time>
					</trkpt>
					<trkpt lat="45.917410" lon="4.645320">
						<ele>306</ele>
						<time>2024-10-10T19:06:45Z</time>
					</trkpt>
					<trkpt lat="45.917590" lon="4.644960">
						<ele>307</ele>
						<time>2024-10-10T19:06:51Z</time>
					</trkpt>
					<trkpt lat="45.917890" lon="4.644560">
						<ele>309</ele>
						<time>2024-10-10T19:06:58Z</time>
					</trkpt>
					<trkpt lat="45.918010" lon="4.644320">
						<ele>310</ele>
						<time>2024-10-10T19:07:02Z</time>
					</trkpt>
					<trkpt lat="45.918060" lon="4.644160">
						<ele>310</ele>
						<time>2024-10-10T19:07:04Z</time>
					</trkpt>
					<trkpt lat="45.918140" lon="4.643930">
						<ele>310</ele>
						<time>2024-10-10T19:07:07Z</time>
					</trkpt>
					<trkpt lat="45.918240" lon="4.643260">
						<ele>312</ele>
						<time>2024-10-10T19:07:15Z</time>
					</trkpt>
					<trkpt lat="45.918320" lon="4.642930">
						<ele>313</ele>
						<time>2024-10-10T19:07:20Z</time>
					</trkpt>
					<trkpt lat="45.918400" lon="4.642730">
						<ele>313</ele>
						<time>2024-10-10T19:07:23Z</time>
					</trkpt>
					<trkpt lat="45.918970" lon="4.641690">
						<ele>313</ele>
						<time>2024-10-10T19:07:39Z</time>
					</trkpt>
					<trkpt lat="45.919810" lon="4.640810">
						<ele>317</ele>
						<time>2024-10-10T19:07:58Z</time>
					</trkpt>
					<trkpt lat="45.921510" lon="4.638860">
						<ele>320</ele>
						<time>2024-10-10T19:08:36Z</time>
					</trkpt>
					<trkpt lat="45.921850" lon="4.638460">
						<ele>321</ele>
						<time>2024-10-10T19:08:44Z</time>
					</trkpt>
					<trkpt lat="45.921730" lon="4.638420">
						<ele>322</ele>
						<time>2024-10-10T19:08:46Z</time>
					</trkpt>
					<trkpt lat="45.921850" lon="4.638460">
						<ele>321</ele>
						<time>2024-10-10T19:08:48Z</time>
					</trkpt>
					<trkpt lat="45.922690" lon="4.637410">
						<ele>323</ele>
						<time>2024-10-10T19:09:08Z</time>
					</trkpt>
					<trkpt lat="45.922800" lon="4.637300">
						<ele>323</ele>
						<time>2024-10-10T19:09:11Z</time>
					</trkpt>
					<trkpt lat="45.922940" lon="4.637230">
						<ele>323</ele>
						<time>2024-10-10T19:09:13Z</time>
					</trkpt>
					<trkpt lat="45.923090" lon="4.637200">
						<ele>324</ele>
						<time>2024-10-10T19:09:16Z</time>
					</trkpt>
					<trkpt lat="45.923340" lon="4.637200">
						<ele>324</ele>
						<time>2024-10-10T19:09:20Z</time>
					</trkpt>
					<trkpt lat="45.923480" lon="4.637220">
						<ele>325</ele>
						<time>2024-10-10T19:09:23Z</time>
					</trkpt>
					<trkpt lat="45.923640" lon="4.637300">
						<ele>325</ele>
						<time>2024-10-10T19:09:26Z</time>
					</trkpt>
					<trkpt lat="45.923730" lon="4.637420">
						<ele>326</ele>
						<time>2024-10-10T19:09:28Z</time>
					</trkpt>
					<trkpt lat="45.923780" lon="4.637570">
						<ele>327</ele>
						<time>2024-10-10T19:09:30Z</time>
					</trkpt>
					<trkpt lat="45.923780" lon="4.637680">
						<ele>326</ele>
						<time>2024-10-10T19:09:32Z</time>
					</trkpt>
					<trkpt lat="45.923720" lon="4.638360">
						<ele>325</ele>
						<time>2024-10-10T19:09:40Z</time>
					</trkpt>
					<trkpt lat="45.923640" lon="4.639680">
						<ele>329</ele>
						<time>2024-10-10T19:09:56Z</time>
					</trkpt>
					<trkpt lat="45.923650" lon="4.640070">
						<ele>329</ele>
						<time>2024-10-10T19:10:01Z</time>
					</trkpt>
					<trkpt lat="45.923670" lon="4.640420">
						<ele>329</ele>
						<time>2024-10-10T19:10:06Z</time>
					</trkpt>
					<trkpt lat="45.923710" lon="4.640590">
						<ele>329</ele>
						<time>2024-10-10T19:10:08Z</time>
					</trkpt>
					<trkpt lat="45.923760" lon="4.640740">
						<ele>329</ele>
						<time>2024-10-10T19:10:10Z</time>
					</trkpt>
					<trkpt lat="45.923980" lon="4.641120">
						<ele>329</ele>
						<time>2024-10-10T19:10:16Z</time>
					</trkpt>
					<trkpt lat="45.924150" lon="4.640950">
						<ele>330</ele>
						<time>2024-10-10T19:10:20Z</time>
					</trkpt>
					<trkpt lat="45.924340" lon="4.640720">
						<ele>330</ele>
						<time>2024-10-10T19:10:24Z</time>
					</trkpt>
					<trkpt lat="45.925180" lon="4.639550">
						<ele>333</ele>
						<time>2024-10-10T19:10:45Z</time>
					</trkpt>
					<trkpt lat="45.925590" lon="4.639200">
						<ele>334</ele>
						<time>2024-10-10T19:10:53Z</time>
					</trkpt>
					<trkpt lat="45.925750" lon="4.638990">
						<ele>334</ele>
						<time>2024-10-10T19:10:57Z</time>
					</trkpt>
					<trkpt lat="45.926030" lon="4.638460">
						<ele>333</ele>
						<time>2024-10-10T19:11:05Z</time>
					</trkpt>
					<trkpt lat="45.926220" lon="4.638050">
						<ele>332</ele>
						<time>2024-10-10T19:11:12Z</time>
					</trkpt>
					<trkpt lat="45.926290" lon="4.637940">
						<ele>332</ele>
						<time>2024-10-10T19:11:13Z</time>
					</trkpt>
					<trkpt lat="45.926360" lon="4.637820">
						<ele>332</ele>
						<time>2024-10-10T19:11:15Z</time>
					</trkpt>
					<trkpt lat="45.926420" lon="4.637750">
						<ele>332</ele>
						<time>2024-10-10T19:11:17Z</time>
					</trkpt>
					<trkpt lat="45.927520" lon="4.636330">
						<ele>331</ele>
						<time>2024-10-10T19:11:43Z</time>
					</trkpt>
					<trkpt lat="45.927600" lon="4.636220">
						<ele>331</ele>
						<time>2024-10-10T19:11:45Z</time>
					</trkpt>
					<trkpt lat="45.927640" lon="4.636100">
						<ele>332</ele>
						<time>2024-10-10T19:11:47Z</time>
					</trkpt>
					<trkpt lat="45.927650" lon="4.635900">
						<ele>332</ele>
						<time>2024-10-10T19:11:49Z</time>
					</trkpt>
					<trkpt lat="45.927620" lon="4.635560">
						<ele>333</ele>
						<time>2024-10-10T19:11:53Z</time>
					</trkpt>
					<trkpt lat="45.927610" lon="4.635240">
						<ele>333</ele>
						<time>2024-10-10T19:11:57Z</time>
					</trkpt>
					<trkpt lat="45.927640" lon="4.634730">
						<ele>334</ele>
						<time>2024-10-10T19:12:04Z</time>
					</trkpt>
					<trkpt lat="45.927620" lon="4.634340">
						<ele>334</ele>
						<time>2024-10-10T19:12:09Z</time>
					</trkpt>
					<trkpt lat="45.927540" lon="4.633440">
						<ele>335</ele>
						<time>2024-10-10T19:12:20Z</time>
					</trkpt>
					<trkpt lat="45.927500" lon="4.632630">
						<ele>336</ele>
						<time>2024-10-10T19:12:30Z</time>
					</trkpt>
					<trkpt lat="45.927510" lon="4.632380">
						<ele>336</ele>
						<time>2024-10-10T19:12:33Z</time>
					</trkpt>
					<trkpt lat="45.927540" lon="4.631990">
						<ele>337</ele>
						<time>2024-10-10T19:12:38Z</time>
					</trkpt>
					<trkpt lat="45.927690" lon="4.630760">
						<ele>342</ele>
						<time>2024-10-10T19:12:53Z</time>
					</trkpt>
					<trkpt lat="45.927700" lon="4.630520">
						<ele>342</ele>
						<time>2024-10-10T19:12:56Z</time>
					</trkpt>
					<trkpt lat="45.927700" lon="4.630420">
						<ele>342</ele>
						<time>2024-10-10T19:12:57Z</time>
					</trkpt>
					<trkpt lat="45.927660" lon="4.629390">
						<ele>345</ele>
						<time>2024-10-10T19:13:10Z</time>
					</trkpt>
					<trkpt lat="45.927670" lon="4.628180">
						<ele>352</ele>
						<time>2024-10-10T19:13:25Z</time>
					</trkpt>
					<trkpt lat="45.927640" lon="4.627970">
						<ele>353</ele>
						<time>2024-10-10T19:13:28Z</time>
					</trkpt>
					<trkpt lat="45.927570" lon="4.627750">
						<ele>354</ele>
						<time>2024-10-10T19:13:31Z</time>
					</trkpt>
					<trkpt lat="45.927480" lon="4.627510">
						<ele>355</ele>
						<time>2024-10-10T19:13:34Z</time>
					</trkpt>
					<trkpt lat="45.927430" lon="4.627180">
						<ele>356</ele>
						<time>2024-10-10T19:13:38Z</time>
					</trkpt>
					<trkpt lat="45.927400" lon="4.626600">
						<ele>359</ele>
						<time>2024-10-10T19:13:46Z</time>
					</trkpt>
					<trkpt lat="45.927350" lon="4.626300">
						<ele>361</ele>
						<time>2024-10-10T19:13:49Z</time>
					</trkpt>
					<trkpt lat="45.927270" lon="4.625240">
						<ele>367</ele>
						<time>2024-10-10T19:14:03Z</time>
					</trkpt>
					<trkpt lat="45.927270" lon="4.624820">
						<ele>369</ele>
						<time>2024-10-10T19:14:08Z</time>
					</trkpt>
					<trkpt lat="45.927270" lon="4.624030">
						<ele>373</ele>
						<time>2024-10-10T19:14:18Z</time>
					</trkpt>
					<trkpt lat="45.927240" lon="4.623570">
						<ele>374</ele>
						<time>2024-10-10T19:14:23Z</time>
					</trkpt>
					<trkpt lat="45.927210" lon="4.623450">
						<ele>374</ele>
						<time>2024-10-10T19:14:25Z</time>
					</trkpt>
					<trkpt lat="45.927040" lon="4.622830">
						<ele>375</ele>
						<time>2024-10-10T19:14:33Z</time>
					</trkpt>
					<trkpt lat="45.926990" lon="4.622200">
						<ele>375</ele>
						<time>2024-10-10T19:14:41Z</time>
					</trkpt>
					<trkpt lat="45.926890" lon="4.621610">
						<ele>375</ele>
						<time>2024-10-10T19:14:48Z</time>
					</trkpt>
					<trkpt lat="45.926890" lon="4.621160">
						<ele>375</ele>
						<time>2024-10-10T19:14:54Z</time>
					</trkpt>
					<trkpt lat="45.926970" lon="4.620770">
						<ele>375</ele>
						<time>2024-10-10T19:14:59Z</time>
					</trkpt>
					<trkpt lat="45.927190" lon="4.620200">
						<ele>374</ele>
						<time>2024-10-10T19:15:07Z</time>
					</trkpt>
					<trkpt lat="45.927360" lon="4.619770">
						<ele>375</ele>
						<time>2024-10-10T19:15:13Z</time>
					</trkpt>
					<trkpt lat="45.927500" lon="4.619500">
						<ele>376</ele>
						<time>2024-10-10T19:15:17Z</time>
					</trkpt>
					<trkpt lat="45.927570" lon="4.619330">
						<ele>376</ele>
						<time>2024-10-10T19:15:20Z</time>
					</trkpt>
					<trkpt lat="45.927600" lon="4.619190">
						<ele>376</ele>
						<time>2024-10-10T19:15:22Z</time>
					</trkpt>
					<trkpt lat="45.927650" lon="4.618600">
						<ele>378</ele>
						<time>2024-10-10T19:15:29Z</time>
					</trkpt>
					<trkpt lat="45.927550" lon="4.618500">
						<ele>378</ele>
						<time>2024-10-10T19:15:31Z</time>
					</trkpt>
					<trkpt lat="45.927570" lon="4.618260">
						<ele>379</ele>
						<time>2024-10-10T19:15:34Z</time>
					</trkpt>
					<trkpt lat="45.927620" lon="4.618040">
						<ele>380</ele>
						<time>2024-10-10T19:15:37Z</time>
					</trkpt>
					<trkpt lat="45.927700" lon="4.617770">
						<ele>382</ele>
						<time>2024-10-10T19:15:41Z</time>
					</trkpt>
					<trkpt lat="45.927920" lon="4.617310">
						<ele>385</ele>
						<time>2024-10-10T19:15:48Z</time>
					</trkpt>
					<trkpt lat="45.927970" lon="4.616970">
						<ele>386</ele>
						<time>2024-10-10T19:15:52Z</time>
					</trkpt>
					<trkpt lat="45.927960" lon="4.616840">
						<ele>386</ele>
						<time>2024-10-10T19:15:54Z</time>
					</trkpt>
					<trkpt lat="45.927910" lon="4.616640">
						<ele>387</ele>
						<time>2024-10-10T19:15:56Z</time>
					</trkpt>
					<trkpt lat="45.927860" lon="4.616520">
						<ele>387</ele>
						<time>2024-10-10T19:15:58Z</time>
					</trkpt>
					<trkpt lat="45.927320" lon="4.615730">
						<ele>391</ele>
						<time>2024-10-10T19:16:12Z</time>
					</trkpt>
					<trkpt lat="45.926760" lon="4.614710">
						<ele>397</ele>
						<time>2024-10-10T19:16:28Z</time>
					</trkpt>
					<trkpt lat="45.926390" lon="4.613980">
						<ele>402</ele>
						<time>2024-10-10T19:16:39Z</time>
					</trkpt>
					<trkpt lat="45.926180" lon="4.613470">
						<ele>405</ele>
						<time>2024-10-10T19:16:46Z</time>
					</trkpt>
					<trkpt lat="45.925850" lon="4.612380">
						<ele>408</ele>
						<time>2024-10-10T19:17:01Z</time>
					</trkpt>
					<trkpt lat="45.925610" lon="4.611740">
						<ele>414</ele>
						<time>2024-10-10T19:17:10Z</time>
					</trkpt>
					<trkpt lat="45.925490" lon="4.611390">
						<ele>416</ele>
						<time>2024-10-10T19:17:15Z</time>
					</trkpt>
					<trkpt lat="45.925470" lon="4.611350">
						<ele>416</ele>
						<time>2024-10-10T19:17:15Z</time>
					</trkpt>
					<trkpt lat="45.925400" lon="4.611260">
						<ele>417</ele>
						<time>2024-10-10T19:17:17Z</time>
					</trkpt>
					<trkpt lat="45.925290" lon="4.611000">
						<ele>418</ele>
						<time>2024-10-10T19:17:21Z</time>
					</trkpt>
					<trkpt lat="45.925140" lon="4.610560">
						<ele>419</ele>
						<time>2024-10-10T19:17:27Z</time>
					</trkpt>
					<trkpt lat="45.925010" lon="4.610150">
						<ele>417</ele>
						<time>2024-10-10T19:17:32Z</time>
					</trkpt>
					<trkpt lat="45.924950" lon="4.610020">
						<ele>417</ele>
						<time>2024-10-10T19:17:34Z</time>
					</trkpt>
					<trkpt lat="45.924910" lon="4.609940">
						<ele>417</ele>
						<time>2024-10-10T19:17:36Z</time>
					</trkpt>
					<trkpt lat="45.924860" lon="4.609870">
						<ele>416</ele>
						<time>2024-10-10T19:17:37Z</time>
					</trkpt>
					<trkpt lat="45.924460" lon="4.609410">
						<ele>413</ele>
						<time>2024-10-10T19:17:46Z</time>
					</trkpt>
					<trkpt lat="45.924340" lon="4.609330">
						<ele>413</ele>
						<time>2024-10-10T19:17:48Z</time>
					</trkpt>
					<trkpt lat="45.923920" lon="4.609190">
						<ele>412</ele>
						<time>2024-10-10T19:17:56Z</time>
					</trkpt>
					<trkpt lat="45.923800" lon="4.609110">
						<ele>412</ele>
						<time>2024-10-10T19:17:58Z</time>
					</trkpt>
					<trkpt lat="45.923680" lon="4.609000">
						<ele>411</ele>
						<time>2024-10-10T19:18:01Z</time>
					</trkpt>
					<trkpt lat="45.923250" lon="4.608450">
						<ele>410</ele>
						<time>2024-10-10T19:18:11Z</time>
					</trkpt>
					<trkpt lat="45.923010" lon="4.608190">
						<ele>409</ele>
						<time>2024-10-10T19:18:16Z</time>
					</trkpt>
					<trkpt lat="45.922780" lon="4.607980">
						<ele>409</ele>
						<time>2024-10-10T19:18:21Z</time>
					</trkpt>
					<trkpt lat="45.922480" lon="4.607770">
						<ele>410</ele>
						<time>2024-10-10T19:18:27Z</time>
					</trkpt>
					<trkpt lat="45.922220" lon="4.607590">
						<ele>410</ele>
						<time>2024-10-10T19:18:32Z</time>
					</trkpt>
					<trkpt lat="45.921970" lon="4.607430">
						<ele>409</ele>
						<time>2024-10-10T19:18:37Z</time>
					</trkpt>
					<trkpt lat="45.921850" lon="4.607390">
						<ele>409</ele>
						<time>2024-10-10T19:18:39Z</time>
					</trkpt>
					<trkpt lat="45.921590" lon="4.607380">
						<ele>410</ele>
						<time>2024-10-10T19:18:44Z</time>
					</trkpt>
					<trkpt lat="45.921470" lon="4.607360">
						<ele>411</ele>
						<time>2024-10-10T19:18:46Z</time>
					</trkpt>
					<trkpt lat="45.920670" lon="4.607120">
						<ele>413</ele>
						<time>2024-10-10T19:19:01Z</time>
					</trkpt>
					<trkpt lat="45.919810" lon="4.606920">
						<ele>411</ele>
						<time>2024-10-10T19:19:16Z</time>
					</trkpt>
					<trkpt lat="45.919290" lon="4.606830">
						<ele>408</ele>
						<time>2024-10-10T19:19:26Z</time>
					</trkpt>
					<trkpt lat="45.919100" lon="4.606830">
						<ele>407</ele>
						<time>2024-10-10T19:19:29Z</time>
					</trkpt>
					<trkpt lat="45.918910" lon="4.606890">
						<ele>406</ele>
						<time>2024-10-10T19:19:32Z</time>
					</trkpt>
					<trkpt lat="45.918740" lon="4.606970">
						<ele>406</ele>
						<time>2024-10-10T19:19:36Z</time>
					</trkpt>
					<trkpt lat="45.918570" lon="4.607100">
						<ele>406</ele>
						<time>2024-10-10T19:19:39Z</time>
					</trkpt>
					<trkpt lat="45.918290" lon="4.607270">
						<ele>405</ele>
						<time>2024-10-10T19:19:44Z</time>
					</trkpt>
					<trkpt lat="45.918230" lon="4.607360">
						<ele>405</ele>
						<time>2024-10-10T19:19:46Z</time>
					</trkpt>
					<trkpt lat="45.917940" lon="4.607400">
						<ele>403</ele>
						<time>2024-10-10T19:19:51Z</time>
					</trkpt>
					<trkpt lat="45.917870" lon="4.607410">
						<ele>403</ele>
						<time>2024-10-10T19:19:52Z</time>
					</trkpt>
					<trkpt lat="45.917840" lon="4.607460">
						<ele>403</ele>
						<time>2024-10-10T19:19:53Z</time>
					</trkpt>
					<trkpt lat="45.917810" lon="4.607560">
						<ele>403</ele>
						<time>2024-10-10T19:19:55Z</time>
					</trkpt>
					<trkpt lat="45.917780" lon="4.607850">
						<ele>403</ele>
						<time>2024-10-10T19:19:58Z</time>
					</trkpt>
					<trkpt lat="45.917760" lon="4.607900">
						<ele>403</ele>
						<time>2024-10-10T19:19:59Z</time>
					</trkpt>
					<trkpt lat="45.917630" lon="4.607990">
						<ele>402</ele>
						<time>2024-10-10T19:20:01Z</time>
					</trkpt>
					<trkpt lat="45.917510" lon="4.608060">
						<ele>401</ele>
						<time>2024-10-10T19:20:04Z</time>
					</trkpt>
					<trkpt lat="45.917340" lon="4.608280">
						<ele>401</ele>
						<time>2024-10-10T19:20:08Z</time>
					</trkpt>
					<trkpt lat="45.917270" lon="4.608360">
						<ele>400</ele>
						<time>2024-10-10T19:20:09Z</time>
					</trkpt>
					<trkpt lat="45.917070" lon="4.608660">
						<ele>399</ele>
						<time>2024-10-10T19:20:15Z</time>
					</trkpt>
					<trkpt lat="45.916990" lon="4.608810">
						<ele>399</ele>
						<time>2024-10-10T19:20:17Z</time>
					</trkpt>
					<trkpt lat="45.916940" lon="4.608970">
						<ele>399</ele>
						<time>2024-10-10T19:20:19Z</time>
					</trkpt>
					<trkpt lat="45.916930" lon="4.609140">
						<ele>398</ele>
						<time>2024-10-10T19:20:21Z</time>
					</trkpt>
					<trkpt lat="45.916950" lon="4.609360">
						<ele>397</ele>
						<time>2024-10-10T19:20:24Z</time>
					</trkpt>
					<trkpt lat="45.916990" lon="4.609490">
						<ele>396</ele>
						<time>2024-10-10T19:20:26Z</time>
					</trkpt>
					<trkpt lat="45.916950" lon="4.609360">
						<ele>397</ele>
						<time>2024-10-10T19:20:27Z</time>
					</trkpt>
					<trkpt lat="45.916930" lon="4.609140">
						<ele>398</ele>
						<time>2024-10-10T19:20:30Z</time>
					</trkpt>
					<trkpt lat="45.916940" lon="4.608970">
						<ele>399</ele>
						<time>2024-10-10T19:20:32Z</time>
					</trkpt>
					<trkpt lat="45.916990" lon="4.608810">
						<ele>399</ele>
						<time>2024-10-10T19:20:34Z</time>
					</trkpt>
					<trkpt lat="45.917070" lon="4.608660">
						<ele>399</ele>
						<time>2024-10-10T19:20:37Z</time>
					</trkpt>
					<trkpt lat="45.917270" lon="4.608360">
						<ele>400</ele>
						<time>2024-10-10T19:20:42Z</time>
					</trkpt>
					<trkpt lat="45.917340" lon="4.608280">
						<ele>401</ele>
						<time>2024-10-10T19:20:44Z</time>
					</trkpt>
					<trkpt lat="45.917510" lon="4.608060">
						<ele>401</ele>
						<time>2024-10-10T19:20:48Z</time>
					</trkpt>
					<trkpt lat="45.917510" lon="4.608010">
						<ele>401</ele>
						<time>2024-10-10T19:20:48Z</time>
					</trkpt>
					<trkpt lat="45.917510" lon="4.608060">
						<ele>401</ele>
						<time>2024-10-10T19:20:49Z</time>
					</trkpt>
					<trkpt lat="45.917340" lon="4.608280">
						<ele>401</ele>
						<time>2024-10-10T19:20:53Z</time>
					</trkpt>
					<trkpt lat="45.917270" lon="4.608360">
						<ele>400</ele>
						<time>2024-10-10T19:20:55Z</time>
					</trkpt>
					<trkpt lat="45.917070" lon="4.608660">
						<ele>399</ele>
						<time>2024-10-10T19:21:00Z</time>
					</trkpt>
					<trkpt lat="45.916990" lon="4.608810">
						<ele>399</ele>
						<time>2024-10-10T19:21:02Z</time>
					</trkpt>
					<trkpt lat="45.916940" lon="4.608970">
						<ele>399</ele>
						<time>2024-10-10T19:21:04Z</time>
					</trkpt>
					<trkpt lat="45.916930" lon="4.609140">
						<ele>398</ele>
						<time>2024-10-10T19:21:06Z</time>
					</trkpt>
					<trkpt lat="45.916950" lon="4.609360">
						<ele>397</ele>
						<time>2024-10-10T19:21:09Z</time>
					</trkpt>
					<trkpt lat="45.916260" lon="4.609420">
						<ele>391</ele>
						<time>2024-10-10T19:21:21Z</time>
					</trkpt>
					<trkpt lat="45.916030" lon="4.609460">
						<ele>388</ele>
						<time>2024-10-10T19:21:25Z</time>
					</trkpt>
					<trkpt lat="45.915600" lon="4.609540">
						<ele>384</ele>
						<time>2024-10-10T19:21:33Z</time>
					</trkpt>
					<trkpt lat="45.915530" lon="4.609510">
						<ele>383</ele>
						<time>2024-10-10T19:21:34Z</time>
					</trkpt>
					<trkpt lat="45.915480" lon="4.609400">
						<ele>383</ele>
						<time>2024-10-10T19:21:36Z</time>
					</trkpt>
					<trkpt lat="45.915390" lon="4.608260">
						<ele>384</ele>
						<time>2024-10-10T19:21:50Z</time>
					</trkpt>
					<trkpt lat="45.915370" lon="4.608170">
						<ele>384</ele>
						<time>2024-10-10T19:21:51Z</time>
					</trkpt>
					<trkpt lat="45.915280" lon="4.608090">
						<ele>383</ele>
						<time>2024-10-10T19:21:53Z</time>
					</trkpt>
					<trkpt lat="45.913120" lon="4.606830">
						<ele>361</ele>
						<time>2024-10-10T19:22:35Z</time>
					</trkpt>
					<trkpt lat="45.913080" lon="4.606800">
						<ele>361</ele>
						<time>2024-10-10T19:22:36Z</time>
					</trkpt>
					<trkpt lat="45.912630" lon="4.606570">
						<ele>360</ele>
						<time>2024-10-10T19:22:44Z</time>
					</trkpt>
					<trkpt lat="45.912360" lon="4.606260">
						<ele>358</ele>
						<time>2024-10-10T19:22:50Z</time>
					</trkpt>
					<trkpt lat="45.912280" lon="4.606170">
						<ele>358</ele>
						<time>2024-10-10T19:22:52Z</time>
					</trkpt>
					<trkpt lat="45.912190" lon="4.606170">
						<ele>357</ele>
						<time>2024-10-10T19:22:54Z</time>
					</trkpt>
					<trkpt lat="45.912140" lon="4.606240">
						<ele>358</ele>
						<time>2024-10-10T19:22:55Z</time>
					</trkpt>
					<trkpt lat="45.911900" lon="4.605840">
						<ele>356</ele>
						<time>2024-10-10T19:23:01Z</time>
					</trkpt>
					<trkpt lat="45.911750" lon="4.605510">
						<ele>353</ele>
						<time>2024-10-10T19:23:06Z</time>
					</trkpt>
					<trkpt lat="45.911670" lon="4.605240">
						<ele>351</ele>
						<time>2024-10-10T19:23:10Z</time>
					</trkpt>
					<trkpt lat="45.911610" lon="4.604960">
						<ele>350</ele>
						<time>2024-10-10T19:23:14Z</time>
					</trkpt>
					<trkpt lat="45.911590" lon="4.604670">
						<ele>349</ele>
						<time>2024-10-10T19:23:17Z</time>
					</trkpt>
					<trkpt lat="45.911590" lon="4.603540">
						<ele>345</ele>
						<time>2024-10-10T19:23:31Z</time>
					</trkpt>
					<trkpt lat="45.911590" lon="4.603340">
						<ele>345</ele>
						<time>2024-10-10T19:23:34Z</time>
					</trkpt>
					<trkpt lat="45.911610" lon="4.602630">
						<ele>344</ele>
						<time>2024-10-10T19:23:42Z</time>
					</trkpt>
					<trkpt lat="45.911610" lon="4.602310">
						<ele>343</ele>
						<time>2024-10-10T19:23:46Z</time>
					</trkpt>
					<trkpt lat="45.911650" lon="4.602100">
						<ele>342</ele>
						<time>2024-10-10T19:23:49Z</time>
					</trkpt>
					<trkpt lat="45.911770" lon="4.601780">
						<ele>341</ele>
						<time>2024-10-10T19:23:54Z</time>
					</trkpt>
					<trkpt lat="45.913030" lon="4.599830">
						<ele>329</ele>
						<time>2024-10-10T19:24:27Z</time>
					</trkpt>
					<trkpt lat="45.913220" lon="4.599530">
						<ele>328</ele>
						<time>2024-10-10T19:24:32Z</time>
					</trkpt>
					<trkpt lat="45.913280" lon="4.599400">
						<ele>327</ele>
						<time>2024-10-10T19:24:34Z</time>
					</trkpt>
					<trkpt lat="45.913320" lon="4.599280">
						<ele>327</ele>
						<time>2024-10-10T19:24:35Z</time>
					</trkpt>
					<trkpt lat="45.913370" lon="4.598980">
						<ele>325</ele>
						<time>2024-10-10T19:24:39Z</time>
					</trkpt>
					<trkpt lat="45.913370" lon="4.598790">
						<ele>325</ele>
						<time>2024-10-10T19:24:41Z</time>
					</trkpt>
					<trkpt lat="45.913330" lon="4.598530">
						<ele>324</ele>
						<time>2024-10-10T19:24:45Z</time>
					</trkpt>
					<trkpt lat="45.913100" lon="4.597680">
						<ele>320</ele>
						<time>2024-10-10T19:24:56Z</time>
					</trkpt>
					<trkpt lat="45.912900" lon="4.596960">
						<ele>316</ele>
						<time>2024-10-10T19:25:06Z</time>
					</trkpt>
					<trkpt lat="45.912840" lon="4.596660">
						<ele>315</ele>
						<time>2024-10-10T19:25:09Z</time>
					</trkpt>
					<trkpt lat="45.912840" lon="4.596390">
						<ele>314</ele>
						<time>2024-10-10T19:25:13Z</time>
					</trkpt>
					<trkpt lat="45.912880" lon="4.596140">
						<ele>313</ele>
						<time>2024-10-10T19:25:16Z</time>
					</trkpt>
					<trkpt lat="45.912800" lon="4.596150">
						<ele>313</ele>
						<time>2024-10-10T19:25:17Z</time>
					</trkpt>
					<trkpt lat="45.912880" lon="4.596140">
						<ele>313</ele>
						<time>2024-10-10T19:25:19Z</time>
					</trkpt>
					<trkpt lat="45.912950" lon="4.595940">
						<ele>312</ele>
						<time>2024-10-10T19:25:22Z</time>
					</trkpt>
					<trkpt lat="45.913090" lon="4.595690">
						<ele>311</ele>
						<time>2024-10-10T19:25:26Z</time>
					</trkpt>
					<trkpt lat="45.913680" lon="4.594990">
						<ele>306</ele>
						<time>2024-10-10T19:25:39Z</time>
					</trkpt>
					<trkpt lat="45.913850" lon="4.595200">
						<ele>305</ele>
						<time>2024-10-10T19:25:43Z</time>
					</trkpt>
					<trkpt lat="45.913920" lon="4.595320">
						<ele>305</ele>
						<time>2024-10-10T19:25:45Z</time>
					</trkpt>
					<trkpt lat="45.913950" lon="4.595450">
						<ele>306</ele>
						<time>2024-10-10T19:25:47Z</time>
					</trkpt>
					<trkpt lat="45.913970" lon="4.595650">
						<ele>306</ele>
						<time>2024-10-10T19:25:49Z</time>
					</trkpt>
					<trkpt lat="45.913990" lon="4.595690">
						<ele>306</ele>
						<time>2024-10-10T19:25:50Z</time>
					</trkpt>
					<trkpt lat="45.914040" lon="4.595800">
						<ele>306</ele>
						<time>2024-10-10T19:25:51Z</time>
					</trkpt>
					<trkpt lat="45.914120" lon="4.595870">
						<ele>307</ele>
						<time>2024-10-10T19:25:53Z</time>
					</trkpt>
					<trkpt lat="45.914300" lon="4.595870">
						<ele>306</ele>
						<time>2024-10-10T19:25:56Z</time>
					</trkpt>
					<trkpt lat="45.914730" lon="4.595750">
						<ele>303</ele>
						<time>2024-10-10T19:26:04Z</time>
					</trkpt>
					<trkpt lat="45.915100" lon="4.595560">
						<ele>300</ele>
						<time>2024-10-10T19:26:11Z</time>
					</trkpt>
					<trkpt lat="45.915230" lon="4.595450">
						<ele>300</ele>
						<time>2024-10-10T19:26:14Z</time>
					</trkpt>
					<trkpt lat="45.915370" lon="4.595270">
						<ele>299</ele>
						<time>2024-10-10T19:26:17Z</time>
					</trkpt>
					<trkpt lat="45.915480" lon="4.594990">
						<ele>297</ele>
						<time>2024-10-10T19:26:21Z</time>
					</trkpt>
					<trkpt lat="45.915590" lon="4.594180">
						<ele>291</ele>
						<time>2024-10-10T19:26:31Z</time>
					</trkpt>
					<trkpt lat="45.915610" lon="4.594040">
						<ele>292</ele>
						<time>2024-10-10T19:26:33Z</time>
					</trkpt>
					<trkpt lat="45.915630" lon="4.593670">
						<ele>294</ele>
						<time>2024-10-10T19:26:38Z</time>
					</trkpt>
					<trkpt lat="45.915700" lon="4.593430">
						<ele>295</ele>
						<time>2024-10-10T19:26:41Z</time>
					</trkpt>
					<trkpt lat="45.915780" lon="4.593250">
						<ele>297</ele>
						<time>2024-10-10T19:26:44Z</time>
					</trkpt>
					<trkpt lat="45.915980" lon="4.592990">
						<ele>301</ele>
						<time>2024-10-10T19:26:48Z</time>
					</trkpt>
					<trkpt lat="45.916110" lon="4.592860">
						<ele>302</ele>
						<time>2024-10-10T19:26:51Z</time>
					</trkpt>
					<trkpt lat="45.916290" lon="4.592620">
						<ele>304</ele>
						<time>2024-10-10T19:26:56Z</time>
					</trkpt>
					<trkpt lat="45.916900" lon="4.591740">
						<ele>310</ele>
						<time>2024-10-10T19:27:11Z</time>
					</trkpt>
					<trkpt lat="45.917210" lon="4.591340">
						<ele>311</ele>
						<time>2024-10-10T19:27:18Z</time>
					</trkpt>
					<trkpt lat="45.917320" lon="4.591170">
						<ele>313</ele>
						<time>2024-10-10T19:27:21Z</time>
					</trkpt>
					<trkpt lat="45.917700" lon="4.590580">
						<ele>317</ele>
						<time>2024-10-10T19:27:31Z</time>
					</trkpt>
					<trkpt lat="45.917830" lon="4.590420">
						<ele>318</ele>
						<time>2024-10-10T19:27:34Z</time>
					</trkpt>
					<trkpt lat="45.918580" lon="4.589470">
						<ele>325</ele>
						<time>2024-10-10T19:27:52Z</time>
					</trkpt>
					<trkpt lat="45.918730" lon="4.589160">
						<ele>327</ele>
						<time>2024-10-10T19:27:57Z</time>
					</trkpt>
					<trkpt lat="45.918950" lon="4.588710">
						<ele>330</ele>
						<time>2024-10-10T19:28:04Z</time>
					</trkpt>
					<trkpt lat="45.919430" lon="4.587740">
						<ele>337</ele>
						<time>2024-10-10T19:28:18Z</time>
					</trkpt>
					<trkpt lat="45.919720" lon="4.587140">
						<ele>343</ele>
						<time>2024-10-10T19:28:27Z</time>
					</trkpt>
					<trkpt lat="45.919980" lon="4.586720">
						<ele>347</ele>
						<time>2024-10-10T19:28:34Z</time>
					</trkpt>
					<trkpt lat="45.920180" lon="4.586430">
						<ele>350</ele>
						<time>2024-10-10T19:28:39Z</time>
					</trkpt>
					<trkpt lat="45.920220" lon="4.586390">
						<ele>350</ele>
						<time>2024-10-10T19:28:40Z</time>
					</trkpt>
					<trkpt lat="45.920290" lon="4.586360">
						<ele>350</ele>
						<time>2024-10-10T19:28:41Z</time>
					</trkpt>
					<trkpt lat="45.920360" lon="4.586270">
						<ele>351</ele>
						<time>2024-10-10T19:28:43Z</time>
					</trkpt>
					<trkpt lat="45.920540" lon="4.585920">
						<ele>353</ele>
						<time>2024-10-10T19:28:49Z</time>
					</trkpt>
					<trkpt lat="45.920660" lon="4.585710">
						<ele>354</ele>
						<time>2024-10-10T19:28:52Z</time>
					</trkpt>
					<trkpt lat="45.920690" lon="4.585670">
						<ele>354</ele>
						<time>2024-10-10T19:28:53Z</time>
					</trkpt>
					<trkpt lat="45.920620" lon="4.585580">
						<ele>354</ele>
						<time>2024-10-10T19:28:54Z</time>
					</trkpt>
					<trkpt lat="45.920490" lon="4.585480">
						<ele>353</ele>
						<time>2024-10-10T19:28:57Z</time>
					</trkpt>
					<trkpt lat="45.920330" lon="4.585450">
						<ele>352</ele>
						<time>2024-10-10T19:29:00Z</time>
					</trkpt>
					<trkpt lat="45.920330" lon="4.585390">
						<ele>352</ele>
						<time>2024-10-10T19:29:01Z</time>
					</trkpt>
					<trkpt lat="45.920190" lon="4.584040">
						<ele>345</ele>
						<time>2024-10-10T19:29:17Z</time>
					</trkpt>
					<trkpt lat="45.920220" lon="4.584040">
						<ele>346</ele>
						<time>2024-10-10T19:29:18Z</time>
					</trkpt>
					<trkpt lat="45.920250" lon="4.583080">
						<ele>339</ele>
						<time>2024-10-10T19:29:30Z</time>
					</trkpt>
					<trkpt lat="45.920240" lon="4.582720">
						<ele>337</ele>
						<time>2024-10-10T19:29:34Z</time>
					</trkpt>
					<trkpt lat="45.920190" lon="4.582230">
						<ele>333</ele>
						<time>2024-10-10T19:29:40Z</time>
					</trkpt>
					<trkpt lat="45.920220" lon="4.582010">
						<ele>332</ele>
						<time>2024-10-10T19:29:43Z</time>
					</trkpt>
					<trkpt lat="45.920300" lon="4.581740">
						<ele>330</ele>
						<time>2024-10-10T19:29:47Z</time>
					</trkpt>
					<trkpt lat="45.920640" lon="4.581000">
						<ele>323</ele>
						<time>2024-10-10T19:29:58Z</time>
					</trkpt>
					<trkpt lat="45.920670" lon="4.581020">
						<ele>323</ele>
						<time>2024-10-10T19:29:58Z</time>
					</trkpt>
					<trkpt lat="45.920710" lon="4.581010">
						<ele>323</ele>
						<time>2024-10-10T19:29:59Z</time>
					</trkpt>
					<trkpt lat="45.920730" lon="4.580970">
						<ele>322</ele>
						<time>2024-10-10T19:30:00Z</time>
					</trkpt>
					<trkpt lat="45.920730" lon="4.580930">
						<ele>322</ele>
						<time>2024-10-10T19:30:00Z</time>
					</trkpt>
					<trkpt lat="45.920720" lon="4.580890">
						<ele>322</ele>
						<time>2024-10-10T19:30:01Z</time>
					</trkpt>
					<trkpt lat="45.920680" lon="4.580860">
						<ele>321</ele>
						<time>2024-10-10T19:30:02Z</time>
					</trkpt>
					<trkpt lat="45.920640" lon="4.580890">
						<ele>321</ele>
						<time>2024-10-10T19:30:02Z</time>
					</trkpt>
					<trkpt lat="45.920620" lon="4.580920">
						<ele>322</ele>
						<time>2024-10-10T19:30:03Z</time>
					</trkpt>
					<trkpt lat="45.920410" lon="4.580830">
						<ele>320</ele>
						<time>2024-10-10T19:30:07Z</time>
					</trkpt>
					<trkpt lat="45.919880" lon="4.580550">
						<ele>319</ele>
						<time>2024-10-10T19:30:17Z</time>
					</trkpt>
					<trkpt lat="45.919310" lon="4.580010">
						<ele>314</ele>
						<time>2024-10-10T19:30:29Z</time>
					</trkpt>
					<trkpt lat="45.919120" lon="4.579790">
						<ele>314</ele>
						<time>2024-10-10T19:30:33Z</time>
					</trkpt>
					<trkpt lat="45.918930" lon="4.579560">
						<ele>314</ele>
						<time>2024-10-10T19:30:38Z</time>
					</trkpt>
					<trkpt lat="45.918760" lon="4.579410">
						<ele>313</ele>
						<time>2024-10-10T19:30:41Z</time>
					</trkpt>
					<trkpt lat="45.918330" lon="4.579140">
						<ele>311</ele>
						<time>2024-10-10T19:30:50Z</time>
					</trkpt>
					<trkpt lat="45.918130" lon="4.578950">
						<ele>312</ele>
						<time>2024-10-10T19:30:54Z</time>
					</trkpt>
					<trkpt lat="45.917940" lon="4.578720">
						<ele>312</ele>
						<time>2024-10-10T19:30:58Z</time>
					</trkpt>
					<trkpt lat="45.917450" lon="4.577880">
						<ele>306</ele>
						<time>2024-10-10T19:31:12Z</time>
					</trkpt>
					<trkpt lat="45.917400" lon="4.577780">
						<ele>306</ele>
						<time>2024-10-10T19:31:13Z</time>
					</trkpt>
					<trkpt lat="45.917530" lon="4.577610">
						<ele>304</ele>
						<time>2024-10-10T19:31:17Z</time>
					</trkpt>
					<trkpt lat="45.917560" lon="4.577520">
						<ele>304</ele>
						<time>2024-10-10T19:31:18Z</time>
					</trkpt>
					<trkpt lat="45.917580" lon="4.577420">
						<ele>305</ele>
						<time>2024-10-10T19:31:19Z</time>
					</trkpt>
					<trkpt lat="45.917580" lon="4.577320">
						<ele>306</ele>
						<time>2024-10-10T19:31:20Z</time>
					</trkpt>
					<trkpt lat="45.917520" lon="4.577140">
						<ele>306</ele>
						<time>2024-10-10T19:31:23Z</time>
					</trkpt>
					<trkpt lat="45.917470" lon="4.577050">
						<ele>307</ele>
						<time>2024-10-10T19:31:24Z</time>
					</trkpt>
					<trkpt lat="45.917090" lon="4.576720">
						<ele>304</ele>
						<time>2024-10-10T19:31:32Z</time>
					</trkpt>
					<trkpt lat="45.917040" lon="4.576650">
						<ele>303</ele>
						<time>2024-10-10T19:31:33Z</time>
					</trkpt>
					<trkpt lat="45.916960" lon="4.576420">
						<ele>302</ele>
						<time>2024-10-10T19:31:37Z</time>
					</trkpt>
					<trkpt lat="45.916850" lon="4.575940">
						<ele>299</ele>
						<time>2024-10-10T19:31:43Z</time>
					</trkpt>
					<trkpt lat="45.916730" lon="4.575670">
						<ele>298</ele>
						<time>2024-10-10T19:31:47Z</time>
					</trkpt>
					<trkpt lat="45.916450" lon="4.575200">
						<ele>298</ele>
						<time>2024-10-10T19:31:54Z</time>
					</trkpt>
					<trkpt lat="45.916300" lon="4.575020">
						<ele>296</ele>
						<time>2024-10-10T19:31:58Z</time>
					</trkpt>
					<trkpt lat="45.916020" lon="4.574770">
						<ele>292</ele>
						<time>2024-10-10T19:32:04Z</time>
					</trkpt>
					<trkpt lat="45.915960" lon="4.574690">
						<ele>291</ele>
						<time>2024-10-10T19:32:05Z</time>
					</trkpt>
					<trkpt lat="45.915910" lon="4.574600">
						<ele>291</ele>
						<time>2024-10-10T19:32:07Z</time>
					</trkpt>
					<trkpt lat="45.915760" lon="4.574220">
						<ele>291</ele>
						<time>2024-10-10T19:32:12Z</time>
					</trkpt>
					<trkpt lat="45.915670" lon="4.574010">
						<ele>290</ele>
						<time>2024-10-10T19:32:15Z</time>
					</trkpt>
					<trkpt lat="45.915580" lon="4.573840">
						<ele>290</ele>
						<time>2024-10-10T19:32:18Z</time>
					</trkpt>
					<trkpt lat="45.915340" lon="4.573510">
						<ele>287</ele>
						<time>2024-10-10T19:32:24Z</time>
					</trkpt>
					<trkpt lat="45.915190" lon="4.573370">
						<ele>285</ele>
						<time>2024-10-10T19:32:27Z</time>
					</trkpt>
					<trkpt lat="45.914890" lon="4.573130">
						<ele>280</ele>
						<time>2024-10-10T19:32:33Z</time>
					</trkpt>
					<trkpt lat="45.914810" lon="4.573050">
						<ele>279</ele>
						<time>2024-10-10T19:32:35Z</time>
					</trkpt>
					<trkpt lat="45.914760" lon="4.572950">
						<ele>278</ele>
						<time>2024-10-10T19:32:36Z</time>
					</trkpt>
					<trkpt lat="45.914700" lon="4.572700">
						<ele>278</ele>
						<time>2024-10-10T19:32:39Z</time>
					</trkpt>
					<trkpt lat="45.914720" lon="4.572430">
						<ele>277</ele>
						<time>2024-10-10T19:32:43Z</time>
					</trkpt>
					<trkpt lat="45.914760" lon="4.572340">
						<ele>276</ele>
						<time>2024-10-10T19:32:44Z</time>
					</trkpt>
					<trkpt lat="45.914870" lon="4.572200">
						<ele>275</ele>
						<time>2024-10-10T19:32:47Z</time>
					</trkpt>
					<trkpt lat="45.914930" lon="4.572160">
						<ele>276</ele>
						<time>2024-10-10T19:32:48Z</time>
					</trkpt>
					<trkpt lat="45.915330" lon="4.572070">
						<ele>278</ele>
						<time>2024-10-10T19:32:55Z</time>
					</trkpt>
					<trkpt lat="45.915510" lon="4.571980">
						<ele>277</ele>
						<time>2024-10-10T19:32:59Z</time>
					</trkpt>
					<trkpt lat="45.916240" lon="4.571450">
						<ele>272</ele>
						<time>2024-10-10T19:33:13Z</time>
					</trkpt>
					<trkpt lat="45.916620" lon="4.571080">
						<ele>269</ele>
						<time>2024-10-10T19:33:21Z</time>
					</trkpt>
					<trkpt lat="45.916840" lon="4.570920">
						<ele>267</ele>
						<time>2024-10-10T19:33:26Z</time>
					</trkpt>
					<trkpt lat="45.917070" lon="4.570790">
						<ele>266</ele>
						<time>2024-10-10T19:33:30Z</time>
					</trkpt>
					<trkpt lat="45.917580" lon="4.570580">
						<ele>264</ele>
						<time>2024-10-10T19:33:39Z</time>
					</trkpt>
					<trkpt lat="45.917680" lon="4.570510">
						<ele>264</ele>
						<time>2024-10-10T19:33:41Z</time>
					</trkpt>
					<trkpt lat="45.918290" lon="4.569920">
						<ele>261</ele>
						<time>2024-10-10T19:33:55Z</time>
					</trkpt>
					<trkpt lat="45.918540" lon="4.569610">
						<ele>260</ele>
						<time>2024-10-10T19:34:00Z</time>
					</trkpt>
					<trkpt lat="45.918600" lon="4.569420">
						<ele>258</ele>
						<time>2024-10-10T19:34:03Z</time>
					</trkpt>
					<trkpt lat="45.918600" lon="4.569350">
						<ele>258</ele>
						<time>2024-10-10T19:34:04Z</time>
					</trkpt>
					<trkpt lat="45.919100" lon="4.568820">
						<ele>258</ele>
						<time>2024-10-10T19:34:15Z</time>
					</trkpt>
					<trkpt lat="45.920810" lon="4.566760">
						<ele>256</ele>
						<time>2024-10-10T19:34:55Z</time>
					</trkpt>
					<trkpt lat="45.920530" lon="4.566230">
						<ele>253</ele>
						<time>2024-10-10T19:35:03Z</time>
					</trkpt>
					<trkpt lat="45.920450" lon="4.565950">
						<ele>251</ele>
						<time>2024-10-10T19:35:07Z</time>
					</trkpt>
					<trkpt lat="45.920360" lon="4.565380">
						<ele>250</ele>
						<time>2024-10-10T19:35:14Z</time>
					</trkpt>
					<trkpt lat="45.920340" lon="4.564750">
						<ele>251</ele>
						<time>2024-10-10T19:35:22Z</time>
					</trkpt>
					<trkpt lat="45.920430" lon="4.563740">
						<ele>253</ele>
						<time>2024-10-10T19:35:34Z</time>
					</trkpt>
					<trkpt lat="45.920520" lon="4.562200">
						<ele>256</ele>
						<time>2024-10-10T19:35:53Z</time>
					</trkpt>
					<trkpt lat="45.920570" lon="4.561850">
						<ele>258</ele>
						<time>2024-10-10T19:35:58Z</time>
					</trkpt>
					<trkpt lat="45.920640" lon="4.561600">
						<ele>260</ele>
						<time>2024-10-10T19:36:01Z</time>
					</trkpt>
					<trkpt lat="45.920780" lon="4.561240">
						<ele>261</ele>
						<time>2024-10-10T19:36:06Z</time>
					</trkpt>
					<trkpt lat="45.920860" lon="4.560870">
						<ele>264</ele>
						<time>2024-10-10T19:36:11Z</time>
					</trkpt>
					<trkpt lat="45.920820" lon="4.560030">
						<ele>269</ele>
						<time>2024-10-10T19:36:21Z</time>
					</trkpt>
					<trkpt lat="45.920740" lon="4.559550">
						<ele>274</ele>
						<time>2024-10-10T19:36:28Z</time>
					</trkpt>
					<trkpt lat="45.920670" lon="4.559370">
						<ele>276</ele>
						<time>2024-10-10T19:36:30Z</time>
					</trkpt>
					<trkpt lat="45.920520" lon="4.559150">
						<ele>277</ele>
						<time>2024-10-10T19:36:34Z</time>
					</trkpt>
					<trkpt lat="45.920190" lon="4.558810">
						<ele>279</ele>
						<time>2024-10-10T19:36:41Z</time>
					</trkpt>
					<trkpt lat="45.920090" lon="4.558600">
						<ele>280</ele>
						<time>2024-10-10T19:36:44Z</time>
					</trkpt>
					<trkpt lat="45.920080" lon="4.558440">
						<ele>282</ele>
						<time>2024-10-10T19:36:46Z</time>
					</trkpt>
					<trkpt lat="45.920130" lon="4.557920">
						<ele>284</ele>
						<time>2024-10-10T19:36:53Z</time>
					</trkpt>
					<trkpt lat="45.920230" lon="4.557360">
						<ele>286</ele>
						<time>2024-10-10T19:37:00Z</time>
					</trkpt>
					<trkpt lat="45.920260" lon="4.556750">
						<ele>288</ele>
						<time>2024-10-10T19:37:08Z</time>
					</trkpt>
					<trkpt lat="45.920230" lon="4.556210">
						<ele>289</ele>
						<time>2024-10-10T19:37:14Z</time>
					</trkpt>
					<trkpt lat="45.920160" lon="4.555750">
						<ele>290</ele>
						<time>2024-10-10T19:37:20Z</time>
					</trkpt>
					<trkpt lat="45.920170" lon="4.555170">
						<ele>293</ele>
						<time>2024-10-10T19:37:27Z</time>
					</trkpt>
					<trkpt lat="45.920070" lon="4.554540">
						<ele>296</ele>
						<time>2024-10-10T19:37:35Z</time>
					</trkpt>
					<trkpt lat="45.919920" lon="4.553050">
						<ele>306</ele>
						<time>2024-10-10T19:37:54Z</time>
					</trkpt>
					<trkpt lat="45.919970" lon="4.552290">
						<ele>308</ele>
						<time>2024-10-10T19:38:03Z</time>
					</trkpt>
					<trkpt lat="45.919960" lon="4.551920">
						<ele>309</ele>
						<time>2024-10-10T19:38:08Z</time>
					</trkpt>
					<trkpt lat="45.919880" lon="4.551310">
						<ele>313</ele>
						<time>2024-10-10T19:38:16Z</time>
					</trkpt>
					<trkpt lat="45.919820" lon="4.551120">
						<ele>314</ele>
						<time>2024-10-10T19:38:18Z</time>
					</trkpt>
					<trkpt lat="45.919660" lon="4.550770">
						<ele>314</ele>
						<time>2024-10-10T19:38:23Z</time>
					</trkpt>
					<trkpt lat="45.919630" lon="4.550440">
						<ele>315</ele>
						<time>2024-10-10T19:38:27Z</time>
					</trkpt>
					<trkpt lat="45.919660" lon="4.549620">
						<ele>315</ele>
						<time>2024-10-10T19:38:38Z</time>
					</trkpt>
					<trkpt lat="45.919710" lon="4.549210">
						<ele>315</ele>
						<time>2024-10-10T19:38:43Z</time>
					</trkpt>
					<trkpt lat="45.919750" lon="4.549050">
						<ele>316</ele>
						<time>2024-10-10T19:38:45Z</time>
					</trkpt>
					<trkpt lat="45.920120" lon="4.548300">
						<ele>318</ele>
						<time>2024-10-10T19:38:56Z</time>
					</trkpt>
					<trkpt lat="45.920320" lon="4.547620">
						<ele>321</ele>
						<time>2024-10-10T19:39:05Z</time>
					</trkpt>
					<trkpt lat="45.920490" lon="4.547280">
						<ele>323</ele>
						<time>2024-10-10T19:39:11Z</time>
					</trkpt>
					<trkpt lat="45.920700" lon="4.546960">
						<ele>324</ele>
						<time>2024-10-10T19:39:16Z</time>
					</trkpt>
					<trkpt lat="45.920910" lon="4.546570">
						<ele>325</ele>
						<time>2024-10-10T19:39:22Z</time>
					</trkpt>
					<trkpt lat="45.921360" lon="4.545630">
						<ele>328</ele>
						<time>2024-10-10T19:39:36Z</time>
					</trkpt>
					<trkpt lat="45.921500" lon="4.545460">
						<ele>329</ele>
						<time>2024-10-10T19:39:40Z</time>
					</trkpt>
					<trkpt lat="45.921710" lon="4.545280">
						<ele>331</ele>
						<time>2024-10-10T19:39:44Z</time>
					</trkpt>
					<trkpt lat="45.921810" lon="4.545130">
						<ele>332</ele>
						<time>2024-10-10T19:39:46Z</time>
					</trkpt>
					<trkpt lat="45.921880" lon="4.544910">
						<ele>333</ele>
						<time>2024-10-10T19:39:49Z</time>
					</trkpt>
					<trkpt lat="45.921990" lon="4.544260">
						<ele>334</ele>
						<time>2024-10-10T19:39:58Z</time>
					</trkpt>
					<trkpt lat="45.922120" lon="4.543850">
						<ele>334</ele>
						<time>2024-10-10T19:40:03Z</time>
					</trkpt>
					<trkpt lat="45.922220" lon="4.543620">
						<ele>334</ele>
						<time>2024-10-10T19:40:07Z</time>
					</trkpt>
					<trkpt lat="45.923120" lon="4.542180">
						<ele>337</ele>
						<time>2024-10-10T19:40:31Z</time>
					</trkpt>
					<trkpt lat="45.924710" lon="4.539320">
						<ele>346</ele>
						<time>2024-10-10T19:41:16Z</time>
					</trkpt>
					<trkpt lat="45.925180" lon="4.538810">
						<ele>349</ele>
						<time>2024-10-10T19:41:26Z</time>
					</trkpt>
					<trkpt lat="45.926820" lon="4.537200">
						<ele>358</ele>
						<time>2024-10-10T19:42:02Z</time>
					</trkpt>
					<trkpt lat="45.926860" lon="4.537070">
						<ele>358</ele>
						<time>2024-10-10T19:42:04Z</time>
					</trkpt>
					<trkpt lat="45.926860" lon="4.536980">
						<ele>358</ele>
						<time>2024-10-10T19:42:05Z</time>
					</trkpt>
					<trkpt lat="45.926810" lon="4.536870">
						<ele>357</ele>
						<time>2024-10-10T19:42:06Z</time>
					</trkpt>
					<trkpt lat="45.926710" lon="4.536800">
						<ele>357</ele>
						<time>2024-10-10T19:42:08Z</time>
					</trkpt>
					<trkpt lat="45.926200" lon="4.536690">
						<ele>359</ele>
						<time>2024-10-10T19:42:17Z</time>
					</trkpt>
					<trkpt lat="45.925840" lon="4.536640">
						<ele>361</ele>
						<time>2024-10-10T19:42:24Z</time>
					</trkpt>
					<trkpt lat="45.925580" lon="4.536640">
						<ele>363</ele>
						<time>2024-10-10T19:42:28Z</time>
					</trkpt>
					<trkpt lat="45.924820" lon="4.536740">
						<ele>369</ele>
						<time>2024-10-10T19:42:42Z</time>
					</trkpt>
					<trkpt lat="45.924570" lon="4.536900">
						<ele>370</ele>
						<time>2024-10-10T19:42:47Z</time>
					</trkpt>
					<trkpt lat="45.924350" lon="4.536980">
						<ele>371</ele>
						<time>2024-10-10T19:42:51Z</time>
					</trkpt>
					<trkpt lat="45.924200" lon="4.536950">
						<ele>373</ele>
						<time>2024-10-10T19:42:54Z</time>
					</trkpt>
					<trkpt lat="45.923890" lon="4.536860">
						<ele>375</ele>
						<time>2024-10-10T19:42:59Z</time>
					</trkpt>
					<trkpt lat="45.923780" lon="4.536860">
						<ele>375</ele>
						<time>2024-10-10T19:43:01Z</time>
					</trkpt>
					<trkpt lat="45.923680" lon="4.536900">
						<ele>375</ele>
						<time>2024-10-10T19:43:03Z</time>
					</trkpt>
					<trkpt lat="45.923420" lon="4.537070">
						<ele>375</ele>
						<time>2024-10-10T19:43:08Z</time>
					</trkpt>
					<trkpt lat="45.923340" lon="4.537090">
						<ele>375</ele>
						<time>2024-10-10T19:43:10Z</time>
					</trkpt>
					<trkpt lat="45.923250" lon="4.537090">
						<ele>375</ele>
						<time>2024-10-10T19:43:11Z</time>
					</trkpt>
					<trkpt lat="45.923080" lon="4.536950">
						<ele>376</ele>
						<time>2024-10-10T19:43:15Z</time>
					</trkpt>
					<trkpt lat="45.922970" lon="4.536780">
						<ele>376</ele>
						<time>2024-10-10T19:43:18Z</time>
					</trkpt>
					<trkpt lat="45.922910" lon="4.536600">
						<ele>376</ele>
						<time>2024-10-10T19:43:20Z</time>
					</trkpt>
					<trkpt lat="45.922880" lon="4.536390">
						<ele>376</ele>
						<time>2024-10-10T19:43:23Z</time>
					</trkpt>
					<trkpt lat="45.922880" lon="4.536190">
						<ele>375</ele>
						<time>2024-10-10T19:43:25Z</time>
					</trkpt>
					<trkpt lat="45.922910" lon="4.535990">
						<ele>375</ele>
						<time>2024-10-10T19:43:28Z</time>
					</trkpt>
					<trkpt lat="45.924430" lon="4.529530">
						<ele>369</ele>
						<time>2024-10-10T19:44:52Z</time>
					</trkpt>
					<trkpt lat="45.924410" lon="4.529280">
						<ele>369</ele>
						<time>2024-10-10T19:44:55Z</time>
					</trkpt>
					<trkpt lat="45.924280" lon="4.529060">
						<ele>369</ele>
						<time>2024-10-10T19:44:59Z</time>
					</trkpt>
					<trkpt lat="45.924110" lon="4.528950">
						<ele>371</ele>
						<time>2024-10-10T19:45:02Z</time>
					</trkpt>
					<trkpt lat="45.924010" lon="4.528950">
						<ele>372</ele>
						<time>2024-10-10T19:45:04Z</time>
					</trkpt>
					<trkpt lat="45.923870" lon="4.528970">
						<ele>373</ele>
						<time>2024-10-10T19:45:06Z</time>
					</trkpt>
					<trkpt lat="45.923750" lon="4.529020">
						<ele>374</ele>
						<time>2024-10-10T19:45:09Z</time>
					</trkpt>
					<trkpt lat="45.923450" lon="4.529260">
						<ele>374</ele>
						<time>2024-10-10T19:45:15Z</time>
					</trkpt>
					<trkpt lat="45.923010" lon="4.529720">
						<ele>370</ele>
						<time>2024-10-10T19:45:24Z</time>
					</trkpt>
					<trkpt lat="45.922780" lon="4.529890">
						<ele>370</ele>
						<time>2024-10-10T19:45:29Z</time>
					</trkpt>
					<trkpt lat="45.922500" lon="4.529980">
						<ele>371</ele>
						<time>2024-10-10T19:45:34Z</time>
					</trkpt>
					<trkpt lat="45.922320" lon="4.529960">
						<ele>371</ele>
						<time>2024-10-10T19:45:37Z</time>
					</trkpt>
					<trkpt lat="45.922220" lon="4.529910">
						<ele>371</ele>
						<time>2024-10-10T19:45:39Z</time>
					</trkpt>
					<trkpt lat="45.922170" lon="4.529960">
						<ele>371</ele>
						<time>2024-10-10T19:45:40Z</time>
					</trkpt>
					<trkpt lat="45.922220" lon="4.529910">
						<ele>371</ele>
						<time>2024-10-10T19:45:41Z</time>
					</trkpt>
					<trkpt lat="45.921970" lon="4.529700">
						<ele>373</ele>
						<time>2024-10-10T19:45:47Z</time>
					</trkpt>
					<trkpt lat="45.921880" lon="4.529580">
						<ele>373</ele>
						<time>2024-10-10T19:45:49Z</time>
					</trkpt>
					<trkpt lat="45.921790" lon="4.529390">
						<ele>374</ele>
						<time>2024-10-10T19:45:52Z</time>
					</trkpt>
					<trkpt lat="45.921610" lon="4.528870">
						<ele>378</ele>
						<time>2024-10-10T19:45:59Z</time>
					</trkpt>
					<trkpt lat="45.921530" lon="4.528740">
						<ele>379</ele>
						<time>2024-10-10T19:46:01Z</time>
					</trkpt>
					<trkpt lat="45.921300" lon="4.528530">
						<ele>381</ele>
						<time>2024-10-10T19:46:06Z</time>
					</trkpt>
					<trkpt lat="45.921010" lon="4.528480">
						<ele>382</ele>
						<time>2024-10-10T19:46:11Z</time>
					</trkpt>
					<trkpt lat="45.920680" lon="4.528510">
						<ele>382</ele>
						<time>2024-10-10T19:46:17Z</time>
					</trkpt>
					<trkpt lat="45.920080" lon="4.528860">
						<ele>384</ele>
						<time>2024-10-10T19:46:28Z</time>
					</trkpt>
					<trkpt lat="45.919970" lon="4.528900">
						<ele>384</ele>
						<time>2024-10-10T19:46:30Z</time>
					</trkpt>
					<trkpt lat="45.919740" lon="4.528900">
						<ele>385</ele>
						<time>2024-10-10T19:46:34Z</time>
					</trkpt>
					<trkpt lat="45.919640" lon="4.528870">
						<ele>385</ele>
						<time>2024-10-10T19:46:36Z</time>
					</trkpt>
					<trkpt lat="45.919460" lon="4.528730">
						<ele>386</ele>
						<time>2024-10-10T19:46:40Z</time>
					</trkpt>
					<trkpt lat="45.919260" lon="4.528440">
						<ele>388</ele>
						<time>2024-10-10T19:46:45Z</time>
					</trkpt>
					<trkpt lat="45.919020" lon="4.527980">
						<ele>390</ele>
						<time>2024-10-10T19:46:52Z</time>
					</trkpt>
					<trkpt lat="45.918590" lon="4.528600">
						<ele>390</ele>
						<time>2024-10-10T19:47:03Z</time>
					</trkpt>
					<trkpt lat="45.917730" lon="4.530310">
						<ele>380</ele>
						<time>2024-10-10T19:47:29Z</time>
					</trkpt>
					<trkpt lat="45.916990" lon="4.531600">
						<ele>378</ele>
						<time>2024-10-10T19:47:50Z</time>
					</trkpt>
					<trkpt lat="45.916340" lon="4.532940">
						<ele>368</ele>
						<time>2024-10-10T19:48:10Z</time>
					</trkpt>
					<trkpt lat="45.915520" lon="4.534160">
						<ele>361</ele>
						<time>2024-10-10T19:48:31Z</time>
					</trkpt>
					<trkpt lat="45.911540" lon="4.540300">
						<ele>338</ele>
						<time>2024-10-10T19:50:15Z</time>
					</trkpt>
					<trkpt lat="45.910530" lon="4.541960">
						<ele>336</ele>
						<time>2024-10-10T19:50:42Z</time>
					</trkpt>
					<trkpt lat="45.909790" lon="4.543610">
						<ele>331</ele>
						<time>2024-10-10T19:51:06Z</time>
					</trkpt>
					<trkpt lat="45.909660" lon="4.544130">
						<ele>327</ele>
						<time>2024-10-10T19:51:13Z</time>
					</trkpt>
					<trkpt lat="45.909500" lon="4.544460">
						<ele>327</ele>
						<time>2024-10-10T19:51:18Z</time>
					</trkpt>
					<trkpt lat="45.909260" lon="4.544860">
						<ele>328</ele>
						<time>2024-10-10T19:51:25Z</time>
					</trkpt>
					<trkpt lat="45.908270" lon="4.545890">
						<ele>321</ele>
						<time>2024-10-10T19:51:47Z</time>
					</trkpt>
					<trkpt lat="45.908040" lon="4.546210">
						<ele>318</ele>
						<time>2024-10-10T19:51:52Z</time>
					</trkpt>
					<trkpt lat="45.907260" lon="4.547370">
						<ele>313</ele>
						<time>2024-10-10T19:52:12Z</time>
					</trkpt>
					<trkpt lat="45.906430" lon="4.548520">
						<ele>306</ele>
						<time>2024-10-10T19:52:33Z</time>
					</trkpt>
					<trkpt lat="45.905660" lon="4.549500">
						<ele>303</ele>
						<time>2024-10-10T19:52:51Z</time>
					</trkpt>
					<trkpt lat="45.905230" lon="4.550160">
						<ele>302</ele>
						<time>2024-10-10T19:53:02Z</time>
					</trkpt>
					<trkpt lat="45.904940" lon="4.550480">
						<ele>302</ele>
						<time>2024-10-10T19:53:09Z</time>
					</trkpt>
					<trkpt lat="45.904020" lon="4.551100">
						<ele>298</ele>
						<time>2024-10-10T19:53:27Z</time>
					</trkpt>
					<trkpt lat="45.903850" lon="4.551260">
						<ele>298</ele>
						<time>2024-10-10T19:53:30Z</time>
					</trkpt>
					<trkpt lat="45.903740" lon="4.551450">
						<ele>297</ele>
						<time>2024-10-10T19:53:33Z</time>
					</trkpt>
					<trkpt lat="45.903530" lon="4.552060">
						<ele>293</ele>
						<time>2024-10-10T19:53:42Z</time>
					</trkpt>
					<trkpt lat="45.903450" lon="4.552200">
						<ele>291</ele>
						<time>2024-10-10T19:53:44Z</time>
					</trkpt>
					<trkpt lat="45.903340" lon="4.552320">
						<ele>289</ele>
						<time>2024-10-10T19:53:47Z</time>
					</trkpt>
					<trkpt lat="45.903020" lon="4.552530">
						<ele>286</ele>
						<time>2024-10-10T19:53:53Z</time>
					</trkpt>
					<trkpt lat="45.902950" lon="4.552570">
						<ele>286</ele>
						<time>2024-10-10T19:53:54Z</time>
					</trkpt>
					<trkpt lat="45.902310" lon="4.552670">
						<ele>281</ele>
						<time>2024-10-10T19:54:06Z</time>
					</trkpt>
					<trkpt lat="45.901810" lon="4.552810">
						<ele>272</ele>
						<time>2024-10-10T19:54:15Z</time>
					</trkpt>
					<trkpt lat="45.901950" lon="4.553490">
						<ele>274</ele>
						<time>2024-10-10T19:54:24Z</time>
					</trkpt>
					<trkpt lat="45.901990" lon="4.553820">
						<ele>276</ele>
						<time>2024-10-10T19:54:28Z</time>
					</trkpt>
					<trkpt lat="45.902010" lon="4.554170">
						<ele>278</ele>
						<time>2024-10-10T19:54:32Z</time>
					</trkpt>
					<trkpt lat="45.901980" lon="4.554990">
						<ele>278</ele>
						<time>2024-10-10T19:54:42Z</time>
					</trkpt>
					<trkpt lat="45.901910" lon="4.555760">
						<ele>280</ele>
						<time>2024-10-10T19:54:52Z</time>
					</trkpt>
					<trkpt lat="45.901830" lon="4.556190">
						<ele>280</ele>
						<time>2024-10-10T19:54:57Z</time>
					</trkpt>
					<trkpt lat="45.901170" lon="4.558250">
						<ele>280</ele>
						<time>2024-10-10T19:55:25Z</time>
					</trkpt>
					<trkpt lat="45.901090" lon="4.558630">
						<ele>280</ele>
						<time>2024-10-10T19:55:30Z</time>
					</trkpt>
					<trkpt lat="45.901060" lon="4.558900">
						<ele>281</ele>
						<time>2024-10-10T19:55:34Z</time>
					</trkpt>
					<trkpt lat="45.901060" lon="4.559380">
						<ele>281</ele>
						<time>2024-10-10T19:55:40Z</time>
					</trkpt>
					<trkpt lat="45.901190" lon="4.560980">
						<ele>279</ele>
						<time>2024-10-10T19:56:00Z</time>
					</trkpt>
					<trkpt lat="45.901270" lon="4.561530">
						<ele>279</ele>
						<time>2024-10-10T19:56:07Z</time>
					</trkpt>
					<trkpt lat="45.901390" lon="4.562100">
						<ele>279</ele>
						<time>2024-10-10T19:56:14Z</time>
					</trkpt>
					<trkpt lat="45.901570" lon="4.562780">
						<ele>279</ele>
						<time>2024-10-10T19:56:23Z</time>
					</trkpt>
					<trkpt lat="45.902700" lon="4.565650">
						<ele>274</ele>
						<time>2024-10-10T19:57:04Z</time>
					</trkpt>
					<trkpt lat="45.902890" lon="4.566070">
						<ele>275</ele>
						<time>2024-10-10T19:57:10Z</time>
					</trkpt>
					<trkpt lat="45.903110" lon="4.566440">
						<ele>274</ele>
						<time>2024-10-10T19:57:16Z</time>
					</trkpt>
					<trkpt lat="45.903430" lon="4.566910">
						<ele>271</ele>
						<time>2024-10-10T19:57:24Z</time>
					</trkpt>
					<trkpt lat="45.904280" lon="4.567960">
						<ele>270</ele>
						<time>2024-10-10T19:57:44Z</time>
					</trkpt>
					<trkpt lat="45.904410" lon="4.568170">
						<ele>269</ele>
						<time>2024-10-10T19:57:48Z</time>
					</trkpt>
					<trkpt lat="45.904520" lon="4.568390">
						<ele>268</ele>
						<time>2024-10-10T19:57:51Z</time>
					</trkpt>
					<trkpt lat="45.904740" lon="4.569040">
						<ele>270</ele>
						<time>2024-10-10T19:58:00Z</time>
					</trkpt>
					<trkpt lat="45.905080" lon="4.570780">
						<ele>259</ele>
						<time>2024-10-10T19:58:22Z</time>
					</trkpt>
					<trkpt lat="45.905140" lon="4.571010">
						<ele>258</ele>
						<time>2024-10-10T19:58:25Z</time>
					</trkpt>
					<trkpt lat="45.905250" lon="4.571320">
						<ele>258</ele>
						<time>2024-10-10T19:58:30Z</time>
					</trkpt>
					<trkpt lat="45.905610" lon="4.572150">
						<ele>255</ele>
						<time>2024-10-10T19:58:42Z</time>
					</trkpt>
					<trkpt lat="45.905650" lon="4.572350">
						<ele>252</ele>
						<time>2024-10-10T19:58:44Z</time>
					</trkpt>
					<trkpt lat="45.905660" lon="4.572450">
						<ele>251</ele>
						<time>2024-10-10T19:58:45Z</time>
					</trkpt>
					<trkpt lat="45.905580" lon="4.572940">
						<ele>249</ele>
						<time>2024-10-10T19:58:52Z</time>
					</trkpt>
					<trkpt lat="45.905510" lon="4.572970">
						<ele>249</ele>
						<time>2024-10-10T19:58:53Z</time>
					</trkpt>
					<trkpt lat="45.905480" lon="4.573000">
						<ele>249</ele>
						<time>2024-10-10T19:58:54Z</time>
					</trkpt>
					<trkpt lat="45.905440" lon="4.573090">
						<ele>249</ele>
						<time>2024-10-10T19:58:55Z</time>
					</trkpt>
					<trkpt lat="45.905450" lon="4.573220">
						<ele>249</ele>
						<time>2024-10-10T19:58:57Z</time>
					</trkpt>
					<trkpt lat="45.905480" lon="4.573270">
						<ele>249</ele>
						<time>2024-10-10T19:58:57Z</time>
					</trkpt>
					<trkpt lat="45.905560" lon="4.573320">
						<ele>248</ele>
						<time>2024-10-10T19:58:59Z</time>
					</trkpt>
					<trkpt lat="45.905640" lon="4.573280">
						<ele>247</ele>
						<time>2024-10-10T19:59:00Z</time>
					</trkpt>
					<trkpt lat="45.905670" lon="4.573230">
						<ele>247</ele>
						<time>2024-10-10T19:59:01Z</time>
					</trkpt>
					<trkpt lat="45.905800" lon="4.573350">
						<ele>245</ele>
						<time>2024-10-10T19:59:04Z</time>
					</trkpt>
					<trkpt lat="45.905880" lon="4.573370">
						<ele>245</ele>
						<time>2024-10-10T19:59:05Z</time>
					</trkpt>
					<trkpt lat="45.906170" lon="4.573380">
						<ele>245</ele>
						<time>2024-10-10T19:59:11Z</time>
					</trkpt>
					<trkpt lat="45.906220" lon="4.573400">
						<ele>245</ele>
						<time>2024-10-10T19:59:12Z</time>
					</trkpt>
					<trkpt lat="45.906260" lon="4.573420">
						<ele>245</ele>
						<time>2024-10-10T19:59:12Z</time>
					</trkpt>
					<trkpt lat="45.906520" lon="4.573610">
						<ele>245</ele>
						<time>2024-10-10T19:59:18Z</time>
					</trkpt>
					<trkpt lat="45.906660" lon="4.573720">
						<ele>245</ele>
						<time>2024-10-10T19:59:20Z</time>
					</trkpt>
					<trkpt lat="45.906960" lon="4.573950">
						<ele>247</ele>
						<time>2024-10-10T19:59:26Z</time>
					</trkpt>
					<trkpt lat="45.907000" lon="4.574060">
						<ele>247</ele>
						<time>2024-10-10T19:59:28Z</time>
					</trkpt>
					<trkpt lat="45.907020" lon="4.574160">
						<ele>248</ele>
						<time>2024-10-10T19:59:29Z</time>
					</trkpt>
					<trkpt lat="45.907020" lon="4.574260">
						<ele>248</ele>
						<time>2024-10-10T19:59:30Z</time>
					</trkpt>
					<trkpt lat="45.906980" lon="4.574520">
						<ele>248</ele>
						<time>2024-10-10T19:59:34Z</time>
					</trkpt>
					<trkpt lat="45.906900" lon="4.574900">
						<ele>248</ele>
						<time>2024-10-10T19:59:39Z</time>
					</trkpt>
					<trkpt lat="45.906860" lon="4.575090">
						<ele>248</ele>
						<time>2024-10-10T19:59:41Z</time>
					</trkpt>
					<trkpt lat="45.906760" lon="4.575780">
						<ele>246</ele>
						<time>2024-10-10T19:59:50Z</time>
					</trkpt>
					<trkpt lat="45.906650" lon="4.576570">
						<ele>243</ele>
						<time>2024-10-10T20:00:00Z</time>
					</trkpt>
					<trkpt lat="45.906600" lon="4.576910">
						<ele>243</ele>
						<time>2024-10-10T20:00:04Z</time>
					</trkpt>
					<trkpt lat="45.906520" lon="4.577190">
						<ele>243</ele>
						<time>2024-10-10T20:00:08Z</time>
					</trkpt>
					<trkpt lat="45.906410" lon="4.577460">
						<ele>243</ele>
						<time>2024-10-10T20:00:12Z</time>
					</trkpt>
					<trkpt lat="45.906370" lon="4.577490">
						<ele>243</ele>
						<time>2024-10-10T20:00:13Z</time>
					</trkpt>
					<trkpt lat="45.906320" lon="4.577580">
						<ele>244</ele>
						<time>2024-10-10T20:00:14Z</time>
					</trkpt>
					<trkpt lat="45.906320" lon="4.577690">
						<ele>245</ele>
						<time>2024-10-10T20:00:15Z</time>
					</trkpt>
					<trkpt lat="45.906340" lon="4.577760">
						<ele>245</ele>
						<time>2024-10-10T20:00:16Z</time>
					</trkpt>
					<trkpt lat="45.906300" lon="4.577950">
						<ele>247</ele>
						<time>2024-10-10T20:00:19Z</time>
					</trkpt>
					<trkpt lat="45.906250" lon="4.578080">
						<ele>247</ele>
						<time>2024-10-10T20:00:21Z</time>
					</trkpt>
					<trkpt lat="45.906020" lon="4.578510">
						<ele>249</ele>
						<time>2024-10-10T20:00:27Z</time>
					</trkpt>
					<trkpt lat="45.905770" lon="4.578870">
						<ele>250</ele>
						<time>2024-10-10T20:00:34Z</time>
					</trkpt>
					<trkpt lat="45.904170" lon="4.580610">
						<ele>248</ele>
						<time>2024-10-10T20:01:09Z</time>
					</trkpt>
					<trkpt lat="45.903550" lon="4.581320">
						<ele>250</ele>
						<time>2024-10-10T20:01:23Z</time>
					</trkpt>
					<trkpt lat="45.903240" lon="4.581800">
						<ele>249</ele>
						<time>2024-10-10T20:01:32Z</time>
					</trkpt>
					<trkpt lat="45.902400" lon="4.583260">
						<ele>243</ele>
						<time>2024-10-10T20:01:55Z</time>
					</trkpt>
					<trkpt lat="45.901940" lon="4.584010">
						<ele>241</ele>
						<time>2024-10-10T20:02:07Z</time>
					</trkpt>
					<trkpt lat="45.901770" lon="4.584310">
						<ele>241</ele>
						<time>2024-10-10T20:02:12Z</time>
					</trkpt>
					<trkpt lat="45.901620" lon="4.584560">
						<ele>241</ele>
						<time>2024-10-10T20:02:16Z</time>
					</trkpt>
					<trkpt lat="45.901020" lon="4.585530">
						<ele>243</ele>
						<time>2024-10-10T20:02:32Z</time>
					</trkpt>
					<trkpt lat="45.900910" lon="4.585720">
						<ele>243</ele>
						<time>2024-10-10T20:02:35Z</time>
					</trkpt>
					<trkpt lat="45.900440" lon="4.586480">
						<ele>245</ele>
						<time>2024-10-10T20:02:48Z</time>
					</trkpt>
					<trkpt lat="45.899980" lon="4.587170">
						<ele>245</ele>
						<time>2024-10-10T20:03:00Z</time>
					</trkpt>
					<trkpt lat="45.899720" lon="4.587510">
						<ele>245</ele>
						<time>2024-10-10T20:03:06Z</time>
					</trkpt>
					<trkpt lat="45.899480" lon="4.587790">
						<ele>245</ele>
						<time>2024-10-10T20:03:12Z</time>
					</trkpt>
					<trkpt lat="45.899120" lon="4.588130">
						<ele>245</ele>
						<time>2024-10-10T20:03:19Z</time>
					</trkpt>
					<trkpt lat="45.898520" lon="4.588600">
						<ele>240</ele>
						<time>2024-10-10T20:03:31Z</time>
					</trkpt>
					<trkpt lat="45.898150" lon="4.588920">
						<ele>239</ele>
						<time>2024-10-10T20:03:39Z</time>
					</trkpt>
					<trkpt lat="45.897940" lon="4.589130">
						<ele>239</ele>
						<time>2024-10-10T20:03:44Z</time>
					</trkpt>
					<trkpt lat="45.897850" lon="4.589250">
						<ele>238</ele>
						<time>2024-10-10T20:03:46Z</time>
					</trkpt>
					<trkpt lat="45.897780" lon="4.589340">
						<ele>238</ele>
						<time>2024-10-10T20:03:47Z</time>
					</trkpt>
					<trkpt lat="45.897440" lon="4.589870">
						<ele>234</ele>
						<time>2024-10-10T20:03:56Z</time>
					</trkpt>
					<trkpt lat="45.896770" lon="4.591010">
						<ele>234</ele>
						<time>2024-10-10T20:04:15Z</time>
					</trkpt>
					<trkpt lat="45.896580" lon="4.591360">
						<ele>233</ele>
						<time>2024-10-10T20:04:20Z</time>
					</trkpt>
					<trkpt lat="45.896480" lon="4.591320">
						<ele>233</ele>
						<time>2024-10-10T20:04:22Z</time>
					</trkpt>
					<trkpt lat="45.896400" lon="4.591330">
						<ele>233</ele>
						<time>2024-10-10T20:04:24Z</time>
					</trkpt>
					<trkpt lat="45.896350" lon="4.591360">
						<ele>233</ele>
						<time>2024-10-10T20:04:25Z</time>
					</trkpt>
					<trkpt lat="45.896310" lon="4.591440">
						<ele>233</ele>
						<time>2024-10-10T20:04:26Z</time>
					</trkpt>
					<trkpt lat="45.896260" lon="4.591520">
						<ele>233</ele>
						<time>2024-10-10T20:04:27Z</time>
					</trkpt>
					<trkpt lat="45.896200" lon="4.591530">
						<ele>233</ele>
						<time>2024-10-10T20:04:28Z</time>
					</trkpt>
					<trkpt lat="45.895980" lon="4.591370">
						<ele>233</ele>
						<time>2024-10-10T20:04:33Z</time>
					</trkpt>
					<trkpt lat="45.895890" lon="4.591320">
						<ele>233</ele>
						<time>2024-10-10T20:04:34Z</time>
					</trkpt>
					<trkpt lat="45.895800" lon="4.591300">
						<ele>233</ele>
						<time>2024-10-10T20:04:36Z</time>
					</trkpt>
					<trkpt lat="45.895550" lon="4.591310">
						<ele>233</ele>
						<time>2024-10-10T20:04:40Z</time>
					</trkpt>
					<trkpt lat="45.895480" lon="4.591290">
						<ele>233</ele>
						<time>2024-10-10T20:04:42Z</time>
					</trkpt>
					<trkpt lat="45.895360" lon="4.591190">
						<ele>233</ele>
						<time>2024-10-10T20:04:44Z</time>
					</trkpt>
					<trkpt lat="45.895210" lon="4.591030">
						<ele>233</ele>
						<time>2024-10-10T20:04:47Z</time>
					</trkpt>
					<trkpt lat="45.894950" lon="4.590470">
						<ele>233</ele>
						<time>2024-10-10T20:04:56Z</time>
					</trkpt>
					<trkpt lat="45.894840" lon="4.590210">
						<ele>234</ele>
						<time>2024-10-10T20:05:00Z</time>
					</trkpt>
					<trkpt lat="45.894610" lon="4.589560">
						<ele>233</ele>
						<time>2024-10-10T20:05:09Z</time>
					</trkpt>
					<trkpt lat="45.894400" lon="4.588970">
						<ele>235</ele>
						<time>2024-10-10T20:05:17Z</time>
					</trkpt>
					<trkpt lat="45.894310" lon="4.588700">
						<ele>237</ele>
						<time>2024-10-10T20:05:21Z</time>
					</trkpt>
					<trkpt lat="45.894320" lon="4.588540">
						<ele>238</ele>
						<time>2024-10-10T20:05:22Z</time>
					</trkpt>
					<trkpt lat="45.894470" lon="4.588250">
						<ele>240</ele>
						<time>2024-10-10T20:05:27Z</time>
					</trkpt>
					<trkpt lat="45.894740" lon="4.587880">
						<ele>240</ele>
						<time>2024-10-10T20:05:34Z</time>
					</trkpt>
					<trkpt lat="45.894790" lon="4.587730">
						<ele>241</ele>
						<time>2024-10-10T20:05:36Z</time>
					</trkpt>
					<trkpt lat="45.894800" lon="4.587570">
						<ele>241</ele>
						<time>2024-10-10T20:05:38Z</time>
					</trkpt>
					<trkpt lat="45.894760" lon="4.587200">
						<ele>244</ele>
						<time>2024-10-10T20:05:42Z</time>
					</trkpt>
					<trkpt lat="45.894540" lon="4.586220">
						<ele>250</ele>
						<time>2024-10-10T20:05:55Z</time>
					</trkpt>
					<trkpt lat="45.894530" lon="4.586070">
						<ele>251</ele>
						<time>2024-10-10T20:05:57Z</time>
					</trkpt>
					<trkpt lat="45.894500" lon="4.585830">
						<ele>252</ele>
						<time>2024-10-10T20:06:00Z</time>
					</trkpt>
					<trkpt lat="45.894530" lon="4.584920">
						<ele>255</ele>
						<time>2024-10-10T20:06:11Z</time>
					</trkpt>
					<trkpt lat="45.894520" lon="4.584510">
						<ele>257</ele>
						<time>2024-10-10T20:06:16Z</time>
					</trkpt>
					<trkpt lat="45.894320" lon="4.582900">
						<ele>267</ele>
						<time>2024-10-10T20:06:37Z</time>
					</trkpt>
					<trkpt lat="45.894220" lon="4.582410">
						<ele>271</ele>
						<time>2024-10-10T20:06:43Z</time>
					</trkpt>
					<trkpt lat="45.893790" lon="4.581490">
						<ele>273</ele>
						<time>2024-10-10T20:06:57Z</time>
					</trkpt>
					<trkpt lat="45.893290" lon="4.580510">
						<ele>271</ele>
						<time>2024-10-10T20:07:12Z</time>
					</trkpt>
					<trkpt lat="45.891660" lon="4.578640">
						<ele>276</ele>
						<time>2024-10-10T20:07:49Z</time>
					</trkpt>
					<trkpt lat="45.891470" lon="4.578470">
						<ele>277</ele>
						<time>2024-10-10T20:07:53Z</time>
					</trkpt>
					<trkpt lat="45.891280" lon="4.578360">
						<ele>278</ele>
						<time>2024-10-10T20:07:56Z</time>
					</trkpt>
					<trkpt lat="45.890850" lon="4.578170">
						<ele>281</ele>
						<time>2024-10-10T20:08:04Z</time>
					</trkpt>
					<trkpt lat="45.890810" lon="4.578120">
						<ele>281</ele>
						<time>2024-10-10T20:08:05Z</time>
					</trkpt>
					<trkpt lat="45.890700" lon="4.577940">
						<ele>282</ele>
						<time>2024-10-10T20:08:08Z</time>
					</trkpt>
					<trkpt lat="45.890560" lon="4.577650">
						<ele>282</ele>
						<time>2024-10-10T20:08:13Z</time>
					</trkpt>
					<trkpt lat="45.890450" lon="4.577300">
						<ele>282</ele>
						<time>2024-10-10T20:08:17Z</time>
					</trkpt>
					<trkpt lat="45.890390" lon="4.577000">
						<ele>282</ele>
						<time>2024-10-10T20:08:21Z</time>
					</trkpt>
					<trkpt lat="45.890240" lon="4.575980">
						<ele>279</ele>
						<time>2024-10-10T20:08:34Z</time>
					</trkpt>
					<trkpt lat="45.890220" lon="4.575780">
						<ele>278</ele>
						<time>2024-10-10T20:08:37Z</time>
					</trkpt>
					<trkpt lat="45.890170" lon="4.575040">
						<ele>278</ele>
						<time>2024-10-10T20:08:46Z</time>
					</trkpt>
					<trkpt lat="45.890150" lon="4.574190">
						<ele>281</ele>
						<time>2024-10-10T20:08:56Z</time>
					</trkpt>
					<trkpt lat="45.890160" lon="4.573860">
						<ele>283</ele>
						<time>2024-10-10T20:09:01Z</time>
					</trkpt>
					<trkpt lat="45.890210" lon="4.573470">
						<ele>285</ele>
						<time>2024-10-10T20:09:05Z</time>
					</trkpt>
					<trkpt lat="45.890330" lon="4.572870">
						<ele>287</ele>
						<time>2024-10-10T20:09:13Z</time>
					</trkpt>
					<trkpt lat="45.890330" lon="4.572680">
						<ele>288</ele>
						<time>2024-10-10T20:09:16Z</time>
					</trkpt>
					<trkpt lat="45.890220" lon="4.572160">
						<ele>289</ele>
						<time>2024-10-10T20:09:22Z</time>
					</trkpt>
					<trkpt lat="45.890240" lon="4.571910">
						<ele>289</ele>
						<time>2024-10-10T20:09:25Z</time>
					</trkpt>
					<trkpt lat="45.890380" lon="4.571180">
						<ele>290</ele>
						<time>2024-10-10T20:09:35Z</time>
					</trkpt>
					<trkpt lat="45.890660" lon="4.567920">
						<ele>296</ele>
						<time>2024-10-10T20:10:15Z</time>
					</trkpt>
					<trkpt lat="45.890650" lon="4.567720">
						<ele>295</ele>
						<time>2024-10-10T20:10:18Z</time>
					</trkpt>
					<trkpt lat="45.890650" lon="4.567590">
						<ele>295</ele>
						<time>2024-10-10T20:10:20Z</time>
					</trkpt>
					<trkpt lat="45.890400" lon="4.566600">
						<ele>292</ele>
						<time>2024-10-10T20:10:33Z</time>
					</trkpt>
					<trkpt lat="45.890350" lon="4.566120">
						<ele>293</ele>
						<time>2024-10-10T20:10:39Z</time>
					</trkpt>
					<trkpt lat="45.890330" lon="4.565000">
						<ele>294</ele>
						<time>2024-10-10T20:10:52Z</time>
					</trkpt>
					<trkpt lat="45.890020" lon="4.564380">
						<ele>295</ele>
						<time>2024-10-10T20:11:02Z</time>
					</trkpt>
					<trkpt lat="45.889870" lon="4.564290">
						<ele>297</ele>
						<time>2024-10-10T20:11:05Z</time>
					</trkpt>
					<trkpt lat="45.889630" lon="4.564250">
						<ele>299</ele>
						<time>2024-10-10T20:11:09Z</time>
					</trkpt>
					<trkpt lat="45.889470" lon="4.564300">
						<ele>301</ele>
						<time>2024-10-10T20:11:12Z</time>
					</trkpt>
					<trkpt lat="45.889230" lon="4.564430">
						<ele>304</ele>
						<time>2024-10-10T20:11:17Z</time>
					</trkpt>
					<trkpt lat="45.889090" lon="4.564470">
						<ele>305</ele>
						<time>2024-10-10T20:11:19Z</time>
					</trkpt>
					<trkpt lat="45.888950" lon="4.564450">
						<ele>306</ele>
						<time>2024-10-10T20:11:22Z</time>
					</trkpt>
					<trkpt lat="45.888740" lon="4.564370">
						<ele>308</ele>
						<time>2024-10-10T20:11:25Z</time>
					</trkpt>
					<trkpt lat="45.888600" lon="4.564220">
						<ele>309</ele>
						<time>2024-10-10T20:11:29Z</time>
					</trkpt>
					<trkpt lat="45.888490" lon="4.564000">
						<ele>310</ele>
						<time>2024-10-10T20:11:32Z</time>
					</trkpt>
					<trkpt lat="45.888450" lon="4.563820">
						<ele>311</ele>
						<time>2024-10-10T20:11:34Z</time>
					</trkpt>
					<trkpt lat="45.888350" lon="4.563060">
						<ele>312</ele>
						<time>2024-10-10T20:11:44Z</time>
					</trkpt>
					<trkpt lat="45.888230" lon="4.562570">
						<ele>312</ele>
						<time>2024-10-10T20:11:50Z</time>
					</trkpt>
					<trkpt lat="45.888060" lon="4.562190">
						<ele>312</ele>
						<time>2024-10-10T20:11:56Z</time>
					</trkpt>
					<trkpt lat="45.887720" lon="4.561630">
						<ele>314</ele>
						<time>2024-10-10T20:12:05Z</time>
					</trkpt>
					<trkpt lat="45.887090" lon="4.560290">
						<ele>321</ele>
						<time>2024-10-10T20:12:25Z</time>
					</trkpt>
					<trkpt lat="45.886940" lon="4.560060">
						<ele>322</ele>
						<time>2024-10-10T20:12:29Z</time>
					</trkpt>
					<trkpt lat="45.886610" lon="4.559650">
						<ele>325</ele>
						<time>2024-10-10T20:12:37Z</time>
					</trkpt>
					<trkpt lat="45.886350" lon="4.559380">
						<ele>326</ele>
						<time>2024-10-10T20:12:43Z</time>
					</trkpt>
					<trkpt lat="45.886000" lon="4.559080">
						<ele>327</ele>
						<time>2024-10-10T20:12:50Z</time>
					</trkpt>
					<trkpt lat="45.885060" lon="4.558410">
						<ele>333</ele>
						<time>2024-10-10T20:13:08Z</time>
					</trkpt>
					<trkpt lat="45.884880" lon="4.558300">
						<ele>333</ele>
						<time>2024-10-10T20:13:12Z</time>
					</trkpt>
					<trkpt lat="45.884790" lon="4.558290">
						<ele>333</ele>
						<time>2024-10-10T20:13:14Z</time>
					</trkpt>
					<trkpt lat="45.884190" lon="4.558320">
						<ele>336</ele>
						<time>2024-10-10T20:13:24Z</time>
					</trkpt>
					<trkpt lat="45.884070" lon="4.558370">
						<ele>336</ele>
						<time>2024-10-10T20:13:26Z</time>
					</trkpt>
					<trkpt lat="45.883900" lon="4.558510">
						<ele>338</ele>
						<time>2024-10-10T20:13:30Z</time>
					</trkpt>
					<trkpt lat="45.883010" lon="4.559360">
						<ele>347</ele>
						<time>2024-10-10T20:13:49Z</time>
					</trkpt>
					<trkpt lat="45.882830" lon="4.559510">
						<ele>348</ele>
						<time>2024-10-10T20:13:53Z</time>
					</trkpt>
					<trkpt lat="45.882580" lon="4.559660">
						<ele>349</ele>
						<time>2024-10-10T20:13:57Z</time>
					</trkpt>
					<trkpt lat="45.882310" lon="4.559750">
						<ele>351</ele>
						<time>2024-10-10T20:14:02Z</time>
					</trkpt>
					<trkpt lat="45.882100" lon="4.559750">
						<ele>351</ele>
						<time>2024-10-10T20:14:06Z</time>
					</trkpt>
					<trkpt lat="45.881160" lon="4.559640">
						<ele>356</ele>
						<time>2024-10-10T20:14:23Z</time>
					</trkpt>
					<trkpt lat="45.880150" lon="4.559710">
						<ele>363</ele>
						<time>2024-10-10T20:14:41Z</time>
					</trkpt>
					<trkpt lat="45.879960" lon="4.559690">
						<ele>364</ele>
						<time>2024-10-10T20:14:44Z</time>
					</trkpt>
					<trkpt lat="45.879640" lon="4.559800">
						<ele>366</ele>
						<time>2024-10-10T20:14:50Z</time>
					</trkpt>
					<trkpt lat="45.879850" lon="4.559980">
						<ele>366</ele>
						<time>2024-10-10T20:14:54Z</time>
					</trkpt>
					<trkpt lat="45.880350" lon="4.560100">
						<ele>365</ele>
						<time>2024-10-10T20:15:03Z</time>
					</trkpt>
					<trkpt lat="45.880780" lon="4.560340">
						<ele>364</ele>
						<time>2024-10-10T20:15:12Z</time>
					</trkpt>
					<trkpt lat="45.880960" lon="4.560480">
						<ele>364</ele>
						<time>2024-10-10T20:15:15Z</time>
					</trkpt>
					<trkpt lat="45.881120" lon="4.560690">
						<ele>365</ele>
						<time>2024-10-10T20:15:19Z</time>
					</trkpt>
					<trkpt lat="45.881360" lon="4.561140">
						<ele>368</ele>
						<time>2024-10-10T20:15:26Z</time>
					</trkpt>
					<trkpt lat="45.881400" lon="4.561260">
						<ele>369</ele>
						<time>2024-10-10T20:15:28Z</time>
					</trkpt>
					<trkpt lat="45.881430" lon="4.561530">
						<ele>372</ele>
						<time>2024-10-10T20:15:31Z</time>
					</trkpt>
					<trkpt lat="45.881380" lon="4.561750">
						<ele>373</ele>
						<time>2024-10-10T20:15:34Z</time>
					</trkpt>
					<trkpt lat="45.881270" lon="4.561920">
						<ele>374</ele>
						<time>2024-10-10T20:15:37Z</time>
					</trkpt>
					<trkpt lat="45.880220" lon="4.563040">
						<ele>379</ele>
						<time>2024-10-10T20:16:00Z</time>
					</trkpt>
					<trkpt lat="45.879980" lon="4.563220">
						<ele>380</ele>
						<time>2024-10-10T20:16:05Z</time>
					</trkpt>
					<trkpt lat="45.879740" lon="4.563320">
						<ele>381</ele>
						<time>2024-10-10T20:16:10Z</time>
					</trkpt>
					<trkpt lat="45.878220" lon="4.563720">
						<ele>389</ele>
						<time>2024-10-10T20:16:37Z</time>
					</trkpt>
					<trkpt lat="45.878040" lon="4.563810">
						<ele>389</ele>
						<time>2024-10-10T20:16:40Z</time>
					</trkpt>
					<trkpt lat="45.877290" lon="4.564260">
						<ele>393</ele>
						<time>2024-10-10T20:16:55Z</time>
					</trkpt>
					<trkpt lat="45.877070" lon="4.564400">
						<ele>394</ele>
						<time>2024-10-10T20:16:59Z</time>
					</trkpt>
					<trkpt lat="45.876980" lon="4.564490">
						<ele>394</ele>
						<time>2024-10-10T20:17:01Z</time>
					</trkpt>
					<trkpt lat="45.876890" lon="4.564680">
						<ele>396</ele>
						<time>2024-10-10T20:17:04Z</time>
					</trkpt>
					<trkpt lat="45.876860" lon="4.564870">
						<ele>397</ele>
						<time>2024-10-10T20:17:06Z</time>
					</trkpt>
					<trkpt lat="45.876850" lon="4.565270">
						<ele>399</ele>
						<time>2024-10-10T20:17:11Z</time>
					</trkpt>
					<trkpt lat="45.876620" lon="4.566000">
						<ele>400</ele>
						<time>2024-10-10T20:17:21Z</time>
					</trkpt>
					<trkpt lat="45.875970" lon="4.567640">
						<ele>398</ele>
						<time>2024-10-10T20:17:45Z</time>
					</trkpt>
					<trkpt lat="45.875070" lon="4.569750">
						<ele>408</ele>
						<time>2024-10-10T20:18:15Z</time>
					</trkpt>
					<trkpt lat="45.875000" lon="4.569980">
						<ele>407</ele>
						<time>2024-10-10T20:18:18Z</time>
					</trkpt>
					<trkpt lat="45.874980" lon="4.570170">
						<ele>407</ele>
						<time>2024-10-10T20:18:21Z</time>
					</trkpt>
					<trkpt lat="45.875040" lon="4.570560">
						<ele>407</ele>
						<time>2024-10-10T20:18:26Z</time>
					</trkpt>
					<trkpt lat="45.875140" lon="4.570770">
						<ele>408</ele>
						<time>2024-10-10T20:18:29Z</time>
					</trkpt>
					<trkpt lat="45.875460" lon="4.571250">
						<ele>410</ele>
						<time>2024-10-10T20:18:37Z</time>
					</trkpt>
					<trkpt lat="45.875560" lon="4.571460">
						<ele>410</ele>
						<time>2024-10-10T20:18:40Z</time>
					</trkpt>
					<trkpt lat="45.875620" lon="4.571650">
						<ele>409</ele>
						<time>2024-10-10T20:18:43Z</time>
					</trkpt>
					<trkpt lat="45.875780" lon="4.572680">
						<ele>404</ele>
						<time>2024-10-10T20:18:56Z</time>
					</trkpt>
					<trkpt lat="45.875810" lon="4.573050">
						<ele>402</ele>
						<time>2024-10-10T20:19:01Z</time>
					</trkpt>
					<trkpt lat="45.875810" lon="4.573060">
						<ele>402</ele>
						<time>2024-10-10T20:19:01Z</time>
					</trkpt>
					<trkpt lat="45.875910" lon="4.574790">
						<ele>395</ele>
						<time>2024-10-10T20:19:22Z</time>
					</trkpt>
					<trkpt lat="45.875530" lon="4.574820">
						<ele>395</ele>
						<time>2024-10-10T20:19:29Z</time>
					</trkpt>
					<trkpt lat="45.875060" lon="4.574950">
						<ele>392</ele>
						<time>2024-10-10T20:19:37Z</time>
					</trkpt>
					<trkpt lat="45.874500" lon="4.575220">
						<ele>389</ele>
						<time>2024-10-10T20:19:48Z</time>
					</trkpt>
					<trkpt lat="45.874360" lon="4.575340">
						<ele>388</ele>
						<time>2024-10-10T20:19:51Z</time>
					</trkpt>
					<trkpt lat="45.872830" lon="4.576630">
						<ele>376</ele>
						<time>2024-10-10T20:20:22Z</time>
					</trkpt>
					<trkpt lat="45.872430" lon="4.576980">
						<ele>377</ele>
						<time>2024-10-10T20:20:31Z</time>
					</trkpt>
					<trkpt lat="45.872300" lon="4.577010">
						<ele>377</ele>
						<time>2024-10-10T20:20:33Z</time>
					</trkpt>
					<trkpt lat="45.871630" lon="4.577160">
						<ele>376</ele>
						<time>2024-10-10T20:20:45Z</time>
					</trkpt>
					<trkpt lat="45.871290" lon="4.577270">
						<ele>375</ele>
						<time>2024-10-10T20:20:51Z</time>
					</trkpt>
					<trkpt lat="45.871210" lon="4.577230">
						<ele>375</ele>
						<time>2024-10-10T20:20:53Z</time>
					</trkpt>
					<trkpt lat="45.871120" lon="4.577110">
						<ele>374</ele>
						<time>2024-10-10T20:20:55Z</time>
					</trkpt>
					<trkpt lat="45.870460" lon="4.576670">
						<ele>370</ele>
						<time>2024-10-10T20:21:08Z</time>
					</trkpt>
					<trkpt lat="45.869600" lon="4.576080">
						<ele>367</ele>
						<time>2024-10-10T20:21:25Z</time>
					</trkpt>
					<trkpt lat="45.869490" lon="4.576010">
						<ele>367</ele>
						<time>2024-10-10T20:21:27Z</time>
					</trkpt>
					<trkpt lat="45.869300" lon="4.575960">
						<ele>366</ele>
						<time>2024-10-10T20:21:31Z</time>
					</trkpt>
					<trkpt lat="45.869080" lon="4.575920">
						<ele>366</ele>
						<time>2024-10-10T20:21:34Z</time>
					</trkpt>
					<trkpt lat="45.868450" lon="4.575860">
						<ele>366</ele>
						<time>2024-10-10T20:21:46Z</time>
					</trkpt>
					<trkpt lat="45.868300" lon="4.575900">
						<ele>366</ele>
						<time>2024-10-10T20:21:48Z</time>
					</trkpt>
					<trkpt lat="45.868170" lon="4.575960">
						<ele>366</ele>
						<time>2024-10-10T20:21:51Z</time>
					</trkpt>
					<trkpt lat="45.868030" lon="4.576090">
						<ele>366</ele>
						<time>2024-10-10T20:21:54Z</time>
					</trkpt>
					<trkpt lat="45.867570" lon="4.576640">
						<ele>367</ele>
						<time>2024-10-10T20:22:04Z</time>
					</trkpt>
					<trkpt lat="45.867050" lon="4.577340">
						<ele>368</ele>
						<time>2024-10-10T20:22:17Z</time>
					</trkpt>
					<trkpt lat="45.867180" lon="4.577930">
						<ele>368</ele>
						<time>2024-10-10T20:22:25Z</time>
					</trkpt>
					<trkpt lat="45.867230" lon="4.578160">
						<ele>368</ele>
						<time>2024-10-10T20:22:28Z</time>
					</trkpt>
					<trkpt lat="45.867250" lon="4.579000">
						<ele>368</ele>
						<time>2024-10-10T20:22:38Z</time>
					</trkpt>
					<trkpt lat="45.867220" lon="4.580290">
						<ele>368</ele>
						<time>2024-10-10T20:22:54Z</time>
					</trkpt>
					<trkpt lat="45.867240" lon="4.580670">
						<ele>369</ele>
						<time>2024-10-10T20:22:59Z</time>
					</trkpt>
					<trkpt lat="45.867290" lon="4.581040">
						<ele>370</ele>
						<time>2024-10-10T20:23:04Z</time>
					</trkpt>
					<trkpt lat="45.867380" lon="4.581500">
						<ele>371</ele>
						<time>2024-10-10T20:23:10Z</time>
					</trkpt>
					<trkpt lat="45.867510" lon="4.581910">
						<ele>371</ele>
						<time>2024-10-10T20:23:15Z</time>
					</trkpt>
					<trkpt lat="45.868140" lon="4.583340">
						<ele>371</ele>
						<time>2024-10-10T20:23:36Z</time>
					</trkpt>
					<trkpt lat="45.868080" lon="4.583370">
						<ele>370</ele>
						<time>2024-10-10T20:23:37Z</time>
					</trkpt>
					<trkpt lat="45.868140" lon="4.583340">
						<ele>371</ele>
						<time>2024-10-10T20:23:38Z</time>
					</trkpt>
					<trkpt lat="45.868450" lon="4.584010">
						<ele>369</ele>
						<time>2024-10-10T20:23:48Z</time>
					</trkpt>
					<trkpt lat="45.868630" lon="4.584380">
						<ele>369</ele>
						<time>2024-10-10T20:23:54Z</time>
					</trkpt>
					<trkpt lat="45.868890" lon="4.584810">
						<ele>369</ele>
						<time>2024-10-10T20:24:01Z</time>
					</trkpt>
					<trkpt lat="45.868990" lon="4.585090">
						<ele>369</ele>
						<time>2024-10-10T20:24:05Z</time>
					</trkpt>
					<trkpt lat="45.869040" lon="4.585330">
						<ele>370</ele>
						<time>2024-10-10T20:24:08Z</time>
					</trkpt>
					<trkpt lat="45.869050" lon="4.585470">
						<ele>370</ele>
						<time>2024-10-10T20:24:10Z</time>
					</trkpt>
					<trkpt lat="45.869050" lon="4.585600">
						<ele>370</ele>
						<time>2024-10-10T20:24:11Z</time>
					</trkpt>
					<trkpt lat="45.869020" lon="4.585750">
						<ele>371</ele>
						<time>2024-10-10T20:24:13Z</time>
					</trkpt>
					<trkpt lat="45.868970" lon="4.585890">
						<ele>371</ele>
						<time>2024-10-10T20:24:15Z</time>
					</trkpt>
					<trkpt lat="45.868840" lon="4.586170">
						<ele>373</ele>
						<time>2024-10-10T20:24:19Z</time>
					</trkpt>
					<trkpt lat="45.868780" lon="4.586340">
						<ele>374</ele>
						<time>2024-10-10T20:24:22Z</time>
					</trkpt>
					<trkpt lat="45.868710" lon="4.586660">
						<ele>376</ele>
						<time>2024-10-10T20:24:26Z</time>
					</trkpt>
					<trkpt lat="45.868520" lon="4.587660">
						<ele>378</ele>
						<time>2024-10-10T20:24:39Z</time>
					</trkpt>
					<trkpt lat="45.868280" lon="4.588950">
						<ele>372</ele>
						<time>2024-10-10T20:24:55Z</time>
					</trkpt>
					<trkpt lat="45.868050" lon="4.590000">
						<ele>366</ele>
						<time>2024-10-10T20:25:09Z</time>
					</trkpt>
					<trkpt lat="45.868000" lon="4.590320">
						<ele>364</ele>
						<time>2024-10-10T20:25:13Z</time>
					</trkpt>
					<trkpt lat="45.867980" lon="4.590650">
						<ele>363</ele>
						<time>2024-10-10T20:25:17Z</time>
					</trkpt>
					<trkpt lat="45.868050" lon="4.593280">
						<ele>357</ele>
						<time>2024-10-10T20:25:50Z</time>
					</trkpt>
					<trkpt lat="45.867870" lon="4.593820">
						<ele>356</ele>
						<time>2024-10-10T20:25:57Z</time>
					</trkpt>
					<trkpt lat="45.867060" lon="4.596520">
						<ele>355</ele>
						<time>2024-10-10T20:26:34Z</time>
					</trkpt>
					<trkpt lat="45.866970" lon="4.596750">
						<ele>355</ele>
						<time>2024-10-10T20:26:37Z</time>
					</trkpt>
					</trkseg>
				</trk>
			</gpx>